ADDS METAR Data INFO
IDs: Format: Raw Decoded Include TAF

Data at: 1507 UTC 23 Oct 2017

KBBF 231455Z AUTO 05014KT 10SM CLR 23/08 A3015 RMK A01
KBBF 231435Z AUTO 04013KT 10SM CLR 23/08 A3015 RMK A01
KBBF 231415Z AUTO 05014KT 10SM CLR 23/09 A3014 RMK A01
KBBF 231355Z AUTO 03015KT 10SM CLR 23/08 A3013 RMK A01
KBBF 231335Z AUTO 05013KT 10SM CLR 23/07 A3013 RMK A01
KBBF 231315Z AUTO 04014KT 10SM CLR 23/09 A3013 RMK A01
KBBF 231255Z AUTO 04012G18KT 10SM CLR 23/09 A3013 RMK A01
KBBF 231235Z AUTO 04013G18KT 10SM CLR 23/10 A3013 RMK A01
KBBF 231215Z AUTO 04014KT 10SM CLR 23/10 A3013 RMK A01
KBBF 231155Z AUTO 04012KT 10SM CLR 23/11 A3013 RMK A01
KBBF 231135Z AUTO 04011KT 10SM CLR 23/11 A3013 RMK A01
KBBF 231115Z AUTO 05011KT 10SM CLR 23/12 A3012 RMK A01
KBBF 231055Z AUTO 04009G16KT 10SM CLR 23/12 A3012 RMK A01
KBBF 231035Z AUTO 05013KT 10SM CLR 23/12 A3011 RMK A01
KBBF 231015Z AUTO 05014KT 10SM CLR 23/13 A3011 RMK A01
KBBF 230955Z AUTO 05012KT 10SM CLR 23/13 A3010 RMK A01
KBBF 230935Z AUTO 04011KT 10SM CLR 23/12 A3011 RMK A01
KBBF 230915Z AUTO 03015KT 10SM CLR 23/13 A3010 RMK A01
KBBF 230855Z AUTO 03014KT 10SM CLR 23/13 A3011 RMK A01
KBBF 230835Z AUTO 04015KT 10SM CLR 23/13 A3011 RMK A01
KBBF 230815Z AUTO 03016G21KT 10SM FEW037 23/14 A3012 RMK A01
KBBF 230755Z AUTO 03016KT 10SM FEW037 23/15 A3012 RMK A01
KBBF 230735Z AUTO 03014KT 10SM FEW036 24/14 A3012 RMK A01
KBBF 230715Z AUTO 05011G17KT 10SM SCT036 23/15 A3013 RMK A01
KBBF 230655Z AUTO 05013KT 10SM CLR 23/15 A3013 RMK A01
KBBF 230635Z AUTO 04016KT 10SM CLR 23/15 A3013 RMK A01
KBBF 230615Z AUTO 03017KT 10SM CLR 23/15 A3012 RMK A01
KBBF 230555Z AUTO 04017KT 10SM CLR 23/15 A3012 RMK A01
KBBF 230535Z AUTO 05016KT 10SM CLR 23/15 A3012 RMK A01
KBBF 230515Z AUTO 04016G21KT 10SM CLR 24/14 A3013 RMK A01
KBBF 230455Z AUTO 05018KT 10SM CLR 24/15 A3013 RMK A01
KBBF 230435Z AUTO 05018KT 10SM CLR 24/15 A3014 RMK A01
KBBF 230415Z AUTO 05017KT 10SM CLR 24/15 A3013 RMK A01
KBBF 230355Z AUTO 05014G20KT 10SM CLR 23/15 A3014 RMK A01
KBBF 230335Z AUTO 03018KT 10SM CLR 23/15 A3013 RMK A01
KBBF 230315Z AUTO 03019KT 10SM CLR 23/16 A3012 RMK A01
KBBF 230255Z AUTO 03018KT 10SM FEW023 23/17 A3012 RMK A01
KBBF 230235Z AUTO 03017KT 10SM FEW025 23/17 A3012 RMK A01
KBBF 230215Z AUTO 03018KT 10SM FEW026 24/17 A3011 RMK A01
KBBF 230155Z AUTO 03020KT 10SM FEW027 24/17 A3011 RMK A01
KBBF 230135Z AUTO 04017KT 10SM SCT028 24/17 A3010 RMK A01
KBBF 230115Z AUTO 04015KT 10SM CLR 24/17 A3010 RMK A01
KBBF 230055Z AUTO 03015KT 10SM CLR 24/16 A3009 RMK A01
KBBF 230035Z AUTO 04016KT 10SM SCT026 24/17 A3008 RMK A01
KBBF 230015Z AUTO 04014KT 10SM BKN024 23/17 A3008 RMK A01
KBBF 222355Z AUTO 03015KT 10SM SCT023 23/17 A3007 RMK A01
KBBF 222335Z AUTO 03016KT 10SM CLR 23/17 A3006 RMK A01
KBBF 222315Z AUTO 03018KT 10SM CLR 24/17 A3005 RMK A01
KBBF 222255Z AUTO 03017KT 10SM CLR 24/17 A3005 RMK A01
KBBF 222235Z AUTO 04017KT 10SM FEW025 SCT070 24/17 A3005 RMK A01
KBBF 222215Z AUTO 05015KT 10SM FEW025 SCT070 BKN085 24/18 A3005 RMK A01
KBBF 222155Z AUTO 04015G20KT 10SM SCT085 24/17 A3005 RMK A01
KBBF 222135Z AUTO 04016KT 10SM SCT055 SCT070 SCT090 24/17 A3005 RMK A01
KBBF 222115Z AUTO 06012KT 10SM BKN055 BKN090 24/18 A3005 RMK A01
KBBF 222055Z AUTO 08014KT 10SM CLR 24/18 A3004 RMK A01
KBBF 222035Z AUTO 09013G19KT 9SM FEW046 FEW075 24/18 A3004 RMK A01
KBBF 222015Z AUTO 09018KT 10SM FEW044 FEW050 FEW070 24/18 A3005 RMK A01
KBBF 221955Z AUTO 08019KT 10SM FEW036 BKN044 BKN050 24/18 A3005 RMK A01
KBBF 221935Z AUTO 07020KT 9SM BKN034 OVC044 24/18 A3005 RMK A01
KBBF 221915Z AUTO 07022G28KT 9SM BKN033 OVC043 23/17 A3006 RMK A01
KBBF 221855Z AUTO 06026KT 9SM BKN030 OVC036 23/17 A3006 RMK A01
KBBF 221835Z AUTO 06027G32KT 8SM BKN030 OVC040 23/17 A3007 RMK A01
KBBF 221815Z AUTO 05032G37KT 7SM FEW020 OVC029 22/17 A3007 RMK A01
KBBF 221755Z AUTO 05031G37KT 8SM SCT017 BKN022 OVC028 21/18 A3008 RMK A01
KBBF 221735Z AUTO 04034KT 3SM HZ SCT016 SCT023 21/18 A3008 RMK A01
KBBF 221715Z AUTO 04037KT 1SM HZ SCT009 SCT014 BKN019 21/18 A3008 RMK A01
KBBF 221655Z AUTO 05038G43KT 6SM HZ FEW008 SCT013 BKN070 24/20 A3007 RMK A01
KBBF 221635Z AUTO 36012KT 9SM SCT049 BKN055 BKN065 28/25 A3007 RMK A01
KBBF 221615Z AUTO 34009KT 10SM FEW048 BKN055 BKN075 28/24 A3006 RMK A01
KBBF 221555Z AUTO 34009KT 10SM FEW017 FEW036 BKN075 28/23 A3005 RMK A01
KBBF 221535Z AUTO 31009G20KT 1 1/4SM HZ SCT018 SCT033 27/22 A3004 RMK A01
KBBF 221515Z AUTO 29005KT 10SM CLR 29/24 A3003 RMK A01
KBBF 221455Z AUTO 27008KT 10SM FEW015 FEW021 FEW033 28/24 A3002 RMK A01
KBBF 221435Z AUTO 28008KT 10SM FEW018 FEW023 SCT039 28/24 A3001 RMK A01
KBBF 221415Z AUTO 24007KT 10SM CLR 28/24 A3000 RMK A01
KBBF 221355Z AUTO 25007KT 10SM CLR 28/24 A2999 RMK A01
KBBF 221335Z AUTO 25009KT 9SM FEW020 28/24 A2999 RMK A01
KBBF 221315Z AUTO 22009KT 10SM FEW020 FEW027 28/24 A2998 RMK A01
KBBF 221255Z AUTO 22010KT 10SM FEW020 SCT027 SCT041 28/24 A2997 RMK A01
KBBF 221235Z AUTO 20007KT 8SM FEW022 FEW030 FEW041 28/25 A2997 RMK A01
KBBF 221215Z AUTO 20012KT 9SM FEW027 FEW036 SCT055 28/24 A2996 RMK A01
KBBF 221155Z AUTO 19016KT 7SM FEW018 SCT028 BKN036 27/24 A2996 RMK A01
KBBF 221135Z AUTO 22013KT 8SM BKN016 BKN020 BKN026 27/24 A2996 RMK A01
KBBF 221115Z AUTO VRB05KT 1 1/2SM HZ SCT003 BKN012 OVC023 27/24 A2997 RMK A01
KBBF 221040Z AUTO 17017KT 1/4SM HZ BKN004 OVC022 26/23 A2995 RMK A01
KBBF 221035Z AUTO 20016G22KT 1/2SM HZ BKN004 OVC024 27/23 A2996 RMK A01
KBBF 221015Z AUTO 18009KT SCT036 BKN041 BKN047 28/24 A2994 RMK A01
KBBF 220955Z AUTO 18013KT 9SM CLR 28/24 A2993 RMK A01
KBBF 220935Z AUTO 18015KT 9SM CLR 28/24 A2993 RMK A01
KBBF 220915Z AUTO 18016KT 8SM FEW018 SCT028 BKN047 28/24 A2993 RMK A01
KBBF 220855Z AUTO 18015KT 8SM FEW018 SCT028 BKN035 28/24 A2993 RMK A01
KBBF 220835Z AUTO 18017KT 9SM FEW028 SCT037 BKN060 28/24 A2993 RMK A01
KBBF 220815Z AUTO 18016KT 9SM FEW020 SCT025 BKN038 28/24 A2993 RMK A01
KBBF 220755Z AUTO 18019KT 9SM SCT021 SCT038 28/24 A2994 RMK A01
KBBF 220735Z AUTO 18019KT 8SM BKN020 BKN029 BKN041 28/24 A2993 RMK A01
KBBF 220715Z AUTO 17017KT 9SM SCT018 SCT025 SCT030 28/24 A2993 RMK A01
KBBF 220655Z AUTO 18019KT 8SM FEW019 28/24 A2992 RMK A01
KBBF 220635Z AUTO 18021KT 9SM CLR 28/24 A2992 RMK A01
KBBF 220615Z AUTO 18022KT 9SM CLR 28/24 A2992 RMK A01
KBBF 220555Z AUTO 17020KT 9SM SCT018 28/24 A2992 RMK A01
KBBF 220535Z AUTO 17020KT 9SM SCT018 28/24 A2993 RMK A01
KBBF 220515Z AUTO 17021KT 9SM FEW018 FEW030 28/24 A2993 RMK A01
KBBF 220455Z AUTO 17021KT 9SM SCT018 SCT024 SCT030 28/24 A2993 RMK A01
KBBF 220435Z AUTO 17020KT 9SM FEW018 FEW025 28/24 A2993 RMK A01
KBBF 220415Z AUTO 17019KT 9SM FEW019 FEW028 28/24 A2993 RMK A01
KBBF 220355Z AUTO 17021KT 9SM FEW021 FEW028 28/24 A2992 RMK A01
KBBF 220335Z AUTO 17020KT 9SM SCT020 SCT025 28/24 A2992 RMK A01
KBBF 220315Z AUTO 17019KT 9SM FEW021 28/24 A2993 RMK A01
KBBF 220255Z AUTO 17020KT 9SM FEW027 28/23 A2992 RMK A01
KBBF 220235Z AUTO 17020KT 9SM SCT018 BKN026 BKN038 28/24 A2992 RMK A01
KBBF 220215Z AUTO 16019KT 9SM BKN017 BKN021 BKN035 28/24 A2992 RMK A01
KBBF 220155Z AUTO 16015KT 8SM SCT016 SCT020 SCT034 28/24 A2991 RMK A01
KBBF 220135Z AUTO 16019KT 9SM SCT016 28/24 A2990 RMK A01
KBBF 220115Z AUTO 16020KT 8SM SCT016 SCT021 SCT040 28/24 A2989 RMK A01
KBBF 220055Z AUTO 15015KT 8SM CLR 28/24 A2989 RMK A01
KBBF 220035Z AUTO 16018KT 8SM FEW023 FEW034 SCT055 28/24 A2989 RMK A01
KBBF 220015Z AUTO 16019KT 9SM FEW019 SCT026 BKN055 27/24 A2989 RMK A01
KBBF 212355Z AUTO 16019KT 9SM FEW020 28/24 A2988 RMK A01
KBBF 212335Z AUTO 16016KT 9SM CLR 28/24 A2989 RMK A01
KBBF 212315Z AUTO 16017KT 9SM FEW021 FEW026 28/24 A2989 RMK A01
KBBF 212255Z AUTO 16018KT 8SM CLR 28/24 A2988 RMK A01
KBBF 212235Z AUTO 15016KT 9SM CLR 28/24 A2988 RMK A01
KBBF 212215Z AUTO 15015KT 9SM CLR 28/24 A2988 RMK A01
KBBF 212155Z AUTO 16017KT 9SM CLR 28/24 A2988 RMK A01
KBBF 212135Z AUTO 16016KT 10SM SCT037 SCT044 SCT055 28/24 A2988 RMK A01
KBBF 212115Z AUTO 16017KT 9SM FEW028 FEW034 28/24 A2988 RMK A01
KBBF 212055Z AUTO 16017KT 8SM FEW020 BKN028 BKN033 28/24 A2988 RMK A01
KBBF 212035Z AUTO 16016KT 8SM FEW017 BKN024 BKN030 28/24 A2988 RMK A01
KBBF 212015Z AUTO 16018KT 7SM SCT017 SCT022 SCT027 28/24 A2987 RMK A01
KBBF 211955Z AUTO 17014KT 9SM CLR 28/24 A2988 RMK A01
KBBF 211935Z AUTO 18014KT 10SM FEW021 FEW026 28/24 A2988 RMK A01
KBBF 211915Z AUTO 18014KT 10SM FEW018 SCT025 SCT055 28/24 A2989 RMK A01
KBBF 211855Z AUTO 17012KT 7SM FEW029 FEW041 FEW055 28/24 A2990 RMK A01
KBBF 211835Z AUTO 17014KT 9SM CLR 28/24 A2991 RMK A01
KBBF 211815Z AUTO 18013KT 9SM CLR 28/24 A2992 RMK A01
KBBF 211755Z AUTO 18015KT 9SM CLR 28/24 A2993 RMK A01
KBBF 211735Z AUTO 18014KT 9SM FEW075 28/24 A2994 RMK A01
KBBF 211715Z AUTO 18015KT 8SM CLR 28/24 A2994 RMK A01
KBBF 211655Z AUTO 18012KT 9SM CLR 28/24 A2995 RMK A01
KBBF 211635Z AUTO 18013KT 8SM FEW018 FEW022 SCT027 28/24 A2995 RMK A01
KBBF 211615Z AUTO 18013KT 8SM SCT019 28/24 A2994 RMK A01
KBBF 211555Z AUTO 18014KT 9SM SCT019 28/24 A2994 RMK A01
KBBF 211535Z AUTO 18016KT 8SM FEW018 SCT023 28/24 A2994 RMK A01
KBBF 211515Z AUTO 18015KT 9SM FEW017 28/24 A2994 RMK A01
KBBF 211455Z AUTO 19014KT 9SM SCT018 SCT026 28/24 A2994 RMK A01
KBBF 211435Z AUTO 18016KT 9SM FEW019 FEW026 28/24 A2994 RMK A01
KBBF 211415Z AUTO 18015KT 9SM CLR 28/24 A2993 RMK A01
KBBF 211355Z AUTO 18016KT 9SM CLR 28/23 A2992 RMK A01
KBBF 211335Z AUTO 19016KT 9SM CLR 28/24 A2992 RMK A01
KBBF 211315Z AUTO 18017KT 9SM FEW021 FEW032 28/24 A2991 RMK A01
KBBF 211255Z AUTO 18016KT 8SM CLR 28/24 A2991 RMK A01
KBBF 211235Z AUTO 19018KT 10SM CLR 28/24 A2990 RMK A01
KBBF 211215Z AUTO 19018KT 9SM CLR 28/24 A2990 RMK A01
KBBF 211155Z AUTO 18017KT 10SM FEW019 FEW023 SCT030 28/23 A2990 RMK A01
KBBF 211135Z AUTO 18018KT 9SM SCT019 SCT024 SCT031 28/24 A2989 RMK A01
KBBF 211115Z AUTO 17019KT 8SM FEW019 FEW028 SCT032 27/24 A2988 RMK A01
KBBF 211055Z AUTO 17015KT 9SM SCT017 28/24 A2988 RMK A01
KBBF 211035Z AUTO 18017KT 9SM FEW017 27/24 A2987 RMK A01
KBBF 211015Z AUTO 18019KT 9SM CLR 28/23 A2987 RMK A01
KBBF 210955Z AUTO 18019G24KT 9SM FEW016 FEW040 27/23 A2987 RMK A01
KBBF 210935Z AUTO 18019KT 10SM FEW017 FEW025 27/24 A2988 RMK A01
KBBF 210915Z AUTO 17018KT 9SM SCT016 SCT025 27/24 A2988 RMK A01
KBBF 210855Z AUTO 17020KT 9SM SCT016 SCT022 SCT027 27/24 A2988 RMK A01
KBBF 210835Z AUTO 17022KT 9SM SCT017 SCT022 BKN029 27/24 A2988 RMK A01
KBBF 210815Z AUTO 16020KT 10SM SCT018 SCT030 27/23 A2989 RMK A01
KBBF 210755Z AUTO 17020KT 9SM SCT017 SCT029 27/23 A2990 RMK A01
KBBF 210735Z AUTO 17019KT 10SM SCT018 SCT029 27/23 A2990 RMK A01
KBBF 210715Z AUTO 16018KT 10SM SCT017 SCT021 SCT027 27/24 A2991 RMK A01
KBBF 210655Z AUTO 16018KT 10SM FEW018 SCT024 27/23 A2992 RMK A01
KBBF 210635Z AUTO 16019KT 10SM FEW017 FEW025 27/23 A2992 RMK A01
KBBF 210615Z AUTO 16019KT 10SM FEW016 27/23 A2992 RMK A01
KBBF 210555Z AUTO 16020KT 10SM SCT016 27/23 A2992 RMK A01
KBBF 210535Z AUTO 15021KT 10SM FEW015 27/23 A2992 RMK A01
KBBF 210515Z AUTO 15016G21KT 9SM CLR 27/23 A2993 RMK A01
KBBF 210455Z AUTO 15017KT 10SM FEW017 27/23 A2993 RMK A01
KBBF 210435Z AUTO 15018KT 10SM FEW017 27/23 A2993 RMK A01
KBBF 210415Z AUTO 15016KT 9SM FEW015 SCT021 27/24 A2994 RMK A01
KBBF 210355Z AUTO 15014KT 9SM FEW015 FEW025 FEW045 27/23 A2994 RMK A01
KBBF 210335Z AUTO 15014KT 10SM FEW016 27/23 A2994 RMK A01
KBBF 210315Z AUTO 14010G16KT 100V180 10SM FEW017 28/23 A2994 RMK A01
KBBF 210255Z AUTO 14011KT 110V170 10SM CLR 27/23 A2993 RMK A01
KBBF 210235Z AUTO 14010KT 060V160 10SM CLR 28/23 A2993 RMK A01
KBBF 210215Z AUTO 15011KT 10SM CLR 28/23 A2992 RMK A01
KBBF 210155Z AUTO 14008G15KT 070V180 10SM FEW023 FEW028 28/23 A2992 RMK A01
KBBF 210135Z AUTO 13008G16KT 100V170 10SM FEW018 SCT024 SCT028 28/23 A2992 RMK A01
KBBF 210115Z AUTO VRB06G13KT 10SM CLR 28/23 A2991 RMK A01
KBBF 210055Z AUTO 11009G16KT 090V150 10SM FEW017 FEW024 28/23 A2991 RMK A01
KBBF 210035Z AUTO 11007G15KT 090V150 10SM SCT025 28/23 A2991 RMK A01
KBBF 210015Z AUTO 11009KT 10SM FEW020 28/22 A2991 RMK A01
KBBF 202355Z AUTO 10009KT 10SM FEW019 27/22 A2991 RMK A01
KBBF 202335Z AUTO 10007KT 10SM FEW021 27/22 A2991 RMK A01
KBBF 202315Z AUTO 09008KT 10SM CLR 27/22 A2991 RMK A01
KBBF 202255Z AUTO 10006KT 10SM FEW022 SCT027 28/22 A2991 RMK A01
KBBF 202235Z AUTO 10005KT 10SM BKN024 BKN030 28/22 A2992 RMK A01
KBBF 202215Z AUTO 09006KT 10SM CLR 28/21 A2992 RMK A01
KBBF 202155Z AUTO 08006KT 10SM CLR 28/21 A2992 RMK A01
KBBF 202135Z AUTO 07005KT 10SM CLR 28/22 A2993 RMK A01
KBBF 202115Z AUTO 07004KT 10SM CLR 28/22 A2993 RMK A01
KBBF 202055Z AUTO 06004KT 10SM CLR 29/22 A2993 RMK A01
KBBF 202035Z AUTO 00000KT 10SM CLR 29/22 A2993 RMK A01
KBBF 202015Z AUTO 08003KT 10SM CLR 28/22 A2993 RMK A01
KBBF 201955Z AUTO 09003KT 10SM CLR 28/22 A2994 RMK A01
KBBF 191915Z AUTO 09006G11KT 3/4SM HZ VV005 24/20 A3005 RMK A01
KBBF 191855Z AUTO 10015G23KT 6SM HZ FEW048 FEW060 26/21 A3005 RMK A01
KBBF 191835Z AUTO 10017KT 7SM FEW033 FEW048 SCT060 27/21 A3006 RMK A01
KBBF 191815Z AUTO 10011G16KT 8SM FEW025 27/21 A3006 RMK A01
KBBF 191755Z AUTO 10016KT 8SM CLR 27/21 A3007 RMK A01
KBBF 191735Z AUTO 11015G20KT 5SM HZ FEW028 FEW034 27/21 A3008 RMK A01
KBBF 191715Z AUTO 10012G18KT 9SM FEW028 SCT033 SCT041 27/20 A3008 RMK A01
KBBF 191655Z AUTO 11014G20KT 8SM SCT028 SCT032 SCT038 28/20 A3009 RMK A01
KBBF 191635Z AUTO 11011G18KT 9SM SCT030 SCT070 28/20 A3009 RMK A01
KBBF 191615Z AUTO 10013KT 9SM SCT030 SCT038 27/20 A3009 RMK A01
KBBF 191555Z AUTO 07012KT 9SM FEW028 FEW075 27/21 A3009 RMK A01
KBBF 191535Z AUTO 07013KT 9SM FEW027 FEW032 SCT075 27/21 A3009 RMK A01
KBBF 191515Z AUTO 07013KT 8SM FEW028 SCT032 SCT040 27/20 A3009 RMK A01
KBBF 191455Z AUTO 08011KT 9SM CLR 27/20 A3008 RMK A01
KBBF 191435Z AUTO 08012KT 9SM CLR 27/20 A3008 RMK A01
KBBF 191415Z AUTO 08011KT 9SM CLR 27/20 A3007 RMK A01
KBBF 191355Z AUTO 09011KT 10SM FEW090 27/20 A3006 RMK A01
KBBF 191335Z AUTO 09009KT 10SM FEW090 27/19 A3006 RMK A01
KBBF 191315Z AUTO 09008KT 10SM SCT110 27/19 A3006 RMK A01
KBBF 191255Z AUTO 09011KT 10SM BKN110 27/19 A3005 RMK A01
KBBF 191235Z AUTO 10008KT 10SM FEW110 27/19 A3005 RMK A01
KBBF 191215Z AUTO 10008KT 10SM FEW033 27/19 A3006 RMK A01
KBBF 191155Z AUTO 10006G12KT 10SM FEW032 27/18 A3006 RMK A01
KBBF 191135Z AUTO 10008KT 10SM CLR 27/18 A3005 RMK A01
KBBF 191115Z AUTO 10009KT 080V140 10SM CLR 27/18 A3005 RMK A01
KBBF 191055Z AUTO 10008KT 10SM FEW033 FEW039 27/18 A3005 RMK A01
KBBF 191035Z AUTO VRB05G11KT 10SM SCT033 BKN039 27/18 A3006 RMK A01
KBBF 191015Z AUTO VRB06G12KT 9SM FEW033 27/18 A3006 RMK A01
KBBF 190955Z AUTO VRB06KT 10SM FEW033 27/18 A3005 RMK A01
KBBF 190935Z AUTO VRB04KT 10SM FEW035 26/18 A3005 RMK A01
KBBF 190915Z AUTO VRB04KT 10SM SCT034 26/18 A3005 RMK A01
KBBF 190855Z AUTO VRB06KT 10SM SCT034 26/18 A3006 RMK A01
KBBF 190835Z AUTO 15008KT 110V170 10SM CLR 27/18 A3006 RMK A01
KBBF 190815Z AUTO 15010KT 10SM FEW035 26/18 A3007 RMK A01
KBBF 190755Z AUTO VRB06KT 10SM SCT035 27/18 A3007 RMK A01
KBBF 190735Z AUTO VRB04G13KT 10SM SCT035 27/18 A3007 RMK A01
KBBF 190715Z AUTO VRB06G12KT 9SM CLR 27/18 A3007 RMK A01
KBBF 190655Z AUTO VRB05G13KT 9SM FEW034 FEW042 27/18 A3007 RMK A01
KBBF 190635Z AUTO VRB06G14KT 090V160 10SM SCT034 BKN041 27/18 A3007 RMK A01
KBBF 190615Z AUTO 15011KT 10SM BKN033 BKN039 27/18 A3007 RMK A01
KBBF 190555Z AUTO 15009KT 120V180 10SM FEW034 27/18 A3008 RMK A01
KBBF 190535Z AUTO 14009G16KT 110V170 9SM FEW034 27/19 A3008 RMK A01
KBBF 190515Z AUTO 15011G17KT 9SM FEW033 26/18 A3008 RMK A01
KBBF 190455Z AUTO 13008G15KT 080V150 10SM BKN032 27/18 A3009 RMK A01
KBBF 190435Z AUTO 15013KT 10SM SCT030 26/18 A3009 RMK A01
KBBF 190415Z AUTO 13009KT 360V160 9SM SCT027 27/19 A3010 RMK A01
KBBF 190355Z AUTO 14011G16KT 9SM SCT027 26/19 A3009 RMK A01
KBBF 190335Z AUTO 14012KT 9SM SCT028 26/18 A3009 RMK A01
KBBF 190315Z AUTO 11009KT 10SM SCT028 26/18 A3009 RMK A01
KBBF 190255Z AUTO 14009G15KT 100V170 10SM BKN029 26/18 A3009 RMK A01
KBBF 190235Z AUTO 12008G16KT 090V150 10SM FEW027 26/18 A3009 RMK A01
KBBF 190215Z AUTO 11009G15KT 10SM FEW027 26/17 A3009 RMK A01
KBBF 190155Z AUTO 11010G16KT 10SM CLR 25/17 A3009 RMK A01
KBBF 190135Z AUTO 10010G16KT 10SM CLR 25/17 A3009 RMK A01
KBBF 190115Z AUTO 10008G15KT 10SM CLR 25/17 A3009 RMK A01
KBBF 190055Z AUTO 11010KT 10SM CLR 25/17 A3009 RMK A01
KBBF 190035Z AUTO 11009G15KT 10SM CLR 25/17 A3008 RMK A01
KBBF 190015Z AUTO 09011KT 10SM CLR 25/17 A3008 RMK A01
KBBF 182355Z AUTO 09011KT 10SM CLR 25/17 A3007 RMK A01
KBBF 182335Z AUTO 09011KT 10SM CLR 25/17 A3007 RMK A01
KBBF 182315Z AUTO 10007KT 10SM CLR 26/17 A3008 RMK A01
KBBF 182255Z AUTO 10006KT 10SM CLR 26/16 A3008 RMK A01
KBBF 182235Z AUTO 09008KT 10SM CLR 26/16 A3008 RMK A01
KBBF 182215Z AUTO 10008KT 10SM CLR 26/16 A3008 RMK A01
KBBF 182155Z AUTO 09007KT 10SM CLR 26/17 A3008 RMK A01
KBBF 182135Z AUTO 09009KT 10SM CLR 26/17 A3008 RMK A01
KBBF 182115Z AUTO 08009KT 10SM CLR 26/16 A3008 RMK A01
KBBF 182055Z AUTO 07007KT 10SM CLR 26/16 A3009 RMK A01
KBBF 182035Z AUTO 08005KT 10SM CLR 26/16 A3009 RMK A01
KBBF 182015Z AUTO 08007KT 10SM CLR 26/16 A3010 RMK A01
KBBF 181955Z AUTO 00000KT 10SM CLR 26/16 A3010 RMK A01
KBBF 181935Z AUTO 09004KT 10SM CLR 26/16 A3011 RMK A01
KBBF 181915Z AUTO 06004KT 10SM CLR 26/16 A3011 RMK A01
KBBF 181855Z AUTO 07005KT 10SM CLR 26/15 A3012 RMK A01
KBBF 181835Z AUTO 07004KT 10SM CLR 25/16 A3013 RMK A01
KBBF 181815Z AUTO 08005KT 10SM CLR 26/16 A3013 RMK A01
KBBF 181755Z AUTO 07004KT 10SM CLR 26/15 A3014 RMK A01
KBBF 181735Z AUTO VRB04KT 10SM CLR 26/16 A3015 RMK A01
KBBF 181715Z AUTO 07004KT 10SM FEW035 25/16 A3015 RMK A01
KBBF 181655Z AUTO 00000KT 10SM CLR 26/16 A3016 RMK A01
KBBF 181635Z AUTO 09005KT 10SM CLR 26/16 A3016 RMK A01
KBBF 181615Z AUTO 09005KT 10SM CLR 25/16 A3016 RMK A01
KBBF 181555Z AUTO 08005KT 10SM CLR 25/15 A3016 RMK A01
KBBF 181535Z AUTO 00000KT 10SM CLR 26/15 A3016 RMK A01
KBBF 181515Z AUTO VRB03KT 10SM CLR 25/16 A3016 RMK A01
KBBF 181455Z AUTO 09005KT 10SM CLR 25/15 A3016 RMK A01
KBBF 181435Z AUTO VRB04KT 10SM CLR 25/15 A3015 RMK A01
KBBF 181415Z AUTO 09004KT 10SM CLR 25/15 A3015 RMK A01
KBBF 181355Z AUTO 08005KT 10SM CLR 25/15 A3014 RMK A01
KBBF 181335Z AUTO 10004KT 10SM CLR 24/15 A3013 RMK A01
KBBF 181315Z AUTO VRB05KT 10SM CLR 24/15 A3012 RMK A01
KBBF 181255Z AUTO VRB05KT 10SM CLR 24/15 A3012 RMK A01
KBBF 181235Z AUTO VRB05G10KT 10SM SCT035 24/15 A3011 RMK A01
KBBF 181215Z AUTO 10007KT 10SM BKN035 24/15 A3011 RMK A01
KBBF 181155Z AUTO VRB04KT 10SM FEW037 24/15 A3012 RMK A01
KBBF 181135Z AUTO 08006KT 10SM SCT036 24/15 A3012 RMK A01
KBBF 181115Z AUTO 08006KT 10SM BKN035 24/15 A3011 RMK A01
KBBF 181055Z AUTO VRB03KT 10SM FEW034 24/15 A3011 RMK A01
KBBF 181035Z AUTO 10006KT 10SM BKN034 24/15 A3011 RMK A01
KBBF 181015Z AUTO VRB04KT 10SM BKN033 24/15 A3011 RMK A01
KBBF 180955Z AUTO 09008KT 10SM SCT033 24/15 A3010 RMK A01
KBBF 180935Z AUTO VRB04KT 10SM FEW031 24/15 A3011 RMK A01
KBBF 180915Z AUTO 09007KT 070V130 10SM SCT033 23/15 A3011 RMK A01
KBBF 180855Z AUTO 09005G11KT 10SM SCT034 24/15 A3011 RMK A01
KBBF 180725Z AUTO 10009KT 10SM SCT035 23/15 A3013 RMK A01
KBBF 180715Z AUTO 10007KT 10SM FEW034 23/13 A3013 RMK A01
KBBF 180655Z AUTO 09009KT 10SM CLR 23/14 A3013 RMK A01
KBBF 180635Z AUTO 10010G15KT 10SM FEW030 23/13 A3013 RMK A01
KBBF 180615Z AUTO 09009KT 8SM SCT028 23/14 A3013 RMK A01
KBBF 180555Z AUTO 08013KT 6SM HZ BKN027 23/14 A3013 RMK A01
KBBF 180535Z AUTO 08012KT 6SM HZ BKN026 24/13 A3014 RMK A01
KBBF 180515Z AUTO 08012G18KT 7SM FEW027 24/11 A3014 RMK A01
KBBF 180455Z AUTO 08014KT 9SM CLR 24/11 A3014 RMK A01
KBBF 180435Z AUTO 08012KT 9SM FEW029 24/11 A3015 RMK A01
KBBF 180415Z AUTO 07015KT 10SM SCT030 24/12 A3015 RMK A01
KBBF 180355Z AUTO 08014KT 9SM SCT031 24/12 A3016 RMK A01
KBBF 180335Z AUTO 07013KT 10SM FEW032 24/12 A3015 RMK A01
KBBF 180315Z AUTO 07015KT 10SM FEW030 24/12 A3015 RMK A01
KBBF 180255Z AUTO 07013KT 10SM BKN031 24/12 A3015 RMK A01
KBBF 180235Z AUTO 07013KT 10SM BKN034 24/12 A3015 RMK A01
KBBF 180215Z AUTO 07013KT 10SM OVC034 24/11 A3016 RMK A01
KBBF 180155Z AUTO 07011KT 10SM OVC034 23/12 A3015 RMK A01
KBBF 180135Z AUTO 06012KT 10SM OVC034 23/13 A3015 RMK A01
KBBF 180115Z AUTO 06012KT 10SM OVC033 23/13 A3014 RMK A01
KBBF 180055Z AUTO 07010KT 10SM OVC032 23/13 A3014 RMK A01
KBBF 180035Z AUTO 05011KT 10SM BKN032 23/12 A3014 RMK A01
KBBF 180015Z AUTO 06009KT 10SM FEW032 23/12 A3013 RMK A01
KBBF 172355Z AUTO 05010KT 10SM CLR 23/12 A3013 RMK A01
KBBF 172335Z AUTO 05009KT 10SM CLR 23/12 A3013 RMK A01
KBBF 172315Z AUTO 05010KT 10SM CLR 23/12 A3012 RMK A01
KBBF 172255Z AUTO 04011KT 10SM CLR 23/12 A3012 RMK A01
KBBF 172235Z AUTO 03009KT 10SM CLR 23/12 A3013 RMK A01
KBBF 172215Z AUTO 04008G15KT 10SM CLR 23/12 A3013 RMK A01
KBBF 172155Z AUTO 05009G14KT 10SM CLR 23/14 A3013 RMK A01
KBBF 172135Z AUTO 04012KT 10SM FEW030 23/15 A3013 RMK A01
KBBF 172115Z AUTO 04010KT 10SM FEW030 23/15 A3013 RMK A01
KBBF 172055Z AUTO 04013KT 10SM SCT030 23/15 A3014 RMK A01
KBBF 172035Z AUTO 04011KT 10SM FEW031 23/15 A3014 RMK A01
KBBF 172015Z AUTO 04011KT 10SM SCT030 23/15 A3015 RMK A01
KBBF 171955Z AUTO 03013KT 10SM FEW031 23/15 A3015 RMK A01
KBBF 171935Z AUTO 02014KT 10SM FEW031 23/15 A3016 RMK A01
KBBF 171915Z AUTO 04014KT 10SM FEW031 23/15 A3017 RMK A01
KBBF 171855Z AUTO 04013KT 10SM FEW028 23/15 A3017 RMK A01
KBBF 171835Z AUTO 05016KT 10SM SCT028 23/16 A3018 RMK A01
KBBF 171815Z AUTO 05016KT 9SM FEW024 FEW029 23/16 A3019 RMK A01
KBBF 171755Z AUTO 05016KT 9SM FEW022 FEW027 23/16 A3020 RMK A01
KBBF 171735Z AUTO 05019KT 9SM SCT022 SCT029 23/17 A3020 RMK A01
KBBF 171715Z AUTO 04017KT 8SM SCT022 SCT029 23/17 A3021 RMK A01
KBBF 171655Z AUTO 04017KT 9SM SCT027 SCT031 23/17 A3022 RMK A01
KBBF 171635Z AUTO 06017KT 10SM SCT030 23/16 A3022 RMK A01
KBBF 171615Z AUTO 06016KT 10SM SCT031 24/15 A3022 RMK A01
KBBF 171555Z AUTO 05015KT 9SM CLR 23/15 A3022 RMK A01
KBBF 171535Z AUTO 04015KT 10SM CLR 23/15 A3022 RMK A01
KBBF 171515Z AUTO 05014KT 10SM CLR 23/15 A3022 RMK A01
KBBF 171455Z AUTO 06012G17KT 10SM CLR 23/14 A3022 RMK A01
KBBF 171435Z AUTO 06015KT 10SM FEW033 23/14 A3022 RMK A01
KBBF 171415Z AUTO 07014KT 10SM CLR 23/14 A3021 RMK A01
KBBF 171355Z AUTO 06013KT 10SM FEW034 23/15 A3021 RMK A01
KBBF 171330Z AUTO 07013KT 10SM SCT034 23/14 A3020 RMK A01
KBBF 171315Z AUTO 07010G18KT 10SM FEW035 23/14 A3020 RMK A01
KBBF 171255Z AUTO 08014KT 10SM FEW036 23/14 A3019 RMK A01
KBBF 171235Z AUTO 06011G17KT 10SM CLR 23/14 A3019 RMK A01
KBBF 171215Z AUTO 06014KT 10SM FEW035 23/14 A3018 RMK A01
KBBF 171155Z AUTO 05013G19KT 10SM SCT034 23/14 A3018 RMK A01
KBBF 171135Z AUTO 06014KT 10SM SCT035 23/14 A3017 RMK A01
KBBF 171115Z AUTO 05017KT 10SM BKN036 23/14 A3016 RMK A01
KBBF 171055Z AUTO 06017KT 10SM SCT037 23/14 A3016 RMK A01
KBBF 171035Z AUTO 06015KT 10SM BKN037 23/14 A3016 RMK A01
KBBF 171015Z AUTO 06017KT 10SM BKN036 23/14 A3015 RMK A01
KBBF 170955Z AUTO 06014G20KT 10SM SCT037 23/14 A3015 RMK A01
KBBF 170935Z AUTO 05016KT 10SM BKN038 23/14 A3015 RMK A01
KBBF 170915Z AUTO 06016KT 10SM SCT037 23/14 A3015 RMK A01
KBBF 170855Z AUTO 05017KT 10SM SCT039 23/13 A3015 RMK A01
KBBF 170835Z AUTO 06015G20KT 10SM SCT039 23/14 A3016 RMK A01
KBBF 170815Z AUTO 07014G19KT 10SM SCT039 23/13 A3016 RMK A01
KBBF 170755Z AUTO 07015KT 10SM SCT040 23/13 A3016 RMK A01
KBBF 170735Z AUTO 07017KT 10SM CLR 23/13 A3016 RMK A01
KBBF 170715Z AUTO 06016KT 10SM SCT040 24/12 A3017 RMK A01
KBBF 170655Z AUTO 07017KT 10SM SCT040 24/14 A3017 RMK A01
KBBF 170635Z AUTO 05016G22KT 10SM CLR 23/13 A3017 RMK A01
KBBF 170615Z AUTO 05017KT 10SM FEW042 24/12 A3018 RMK A01
KBBF 170555Z AUTO 05018KT 10SM CLR 24/12 A3018 RMK A01
KBBF 170535Z AUTO 05017G22KT 10SM CLR 24/12 A3019 RMK A01
KBBF 170515Z AUTO 05017KT 10SM CLR 24/11 A3020 RMK A01
KBBF 170455Z AUTO 05018KT 10SM CLR 24/11 A3020 RMK A01
KBBF 170435Z AUTO 05019KT 10SM CLR 24/10 A3020 RMK A01
KBBF 170415Z AUTO 06017G23KT 10SM FEW040 24/10 A3021 RMK A01
KBBF 170355Z AUTO 05021KT 10SM SCT039 24/10 A3020 RMK A01
KBBF 170335Z AUTO 05018KT 10SM CLR 24/10 A3020 RMK A01
KBBF 170315Z AUTO 05019KT 10SM CLR 24/10 A3020 RMK A01
KBBF 170255Z AUTO 04018KT 10SM CLR 24/10 A3019 RMK A01
KBBF 170235Z AUTO 02020KT 10SM CLR 25/10 A3019 RMK A01
KBBF 170215Z AUTO 03020KT 10SM CLR 25/09 A3019 RMK A01
KBBF 170155Z AUTO 02021G26KT 10SM CLR 25/09 A3019 RMK A01
KBBF 170135Z AUTO 03021KT 10SM CLR 25/09 A3018 RMK A01
KBBF 170115Z AUTO 03022KT 10SM CLR 25/08 A3017 RMK A01
KBBF 170055Z AUTO 04017G23KT 10SM CLR 25/06 A3017 RMK A01
KBBF 170035Z AUTO 03017KT 10SM CLR 25/06 A3016 RMK A01
KBBF 170015Z AUTO 03020KT 10SM CLR 25/08 A3015 RMK A01
KBBF 162355Z AUTO 03019KT 10SM CLR 25/07 A3015 RMK A01
KBBF 162335Z AUTO 03016G23KT 10SM CLR 25/08 A3014 RMK A01
KBBF 162315Z AUTO 05017KT 10SM CLR 25/08 A3014 RMK A01
KBBF 162255Z AUTO 04019KT 10SM CLR 25/08 A3013 RMK A01
KBBF 162235Z AUTO 05018KT 10SM CLR 25/07 A3013 RMK A01
KBBF 162215Z AUTO 05018KT 10SM CLR 25/07 A3013 RMK A01
KBBF 162155Z AUTO 03020KT 10SM CLR 25/09 A3013 RMK A01
KBBF 162135Z AUTO 03020KT 10SM CLR 25/08 A3013 RMK A01
KBBF 162115Z AUTO 04023KT 10SM CLR 25/08 A3013 RMK A01
KBBF 162055Z AUTO 03018KT 10SM CLR 25/09 A3013 RMK A01
KBBF 162035Z AUTO 04020G25KT 10SM CLR 24/09 A3014 RMK A01
KBBF 162015Z AUTO 03018KT 10SM CLR 24/11 A3014 RMK A01
KBBF 161955Z AUTO 03021KT 10SM CLR 23/11 A3015 RMK A01
KBBF 161935Z AUTO 03020KT 10SM CLR 23/12 A3015 RMK A01
KBBF 161915Z AUTO 03019G24KT 10SM CLR 22/13 A3016 RMK A01
KBBF 161855Z AUTO 02021KT 10SM CLR 22/13 A3016 RMK A01
KBBF 161835Z AUTO 04022KT 10SM FEW065 22/13 A3017 RMK A01
KBBF 161815Z AUTO 03019G25KT 10SM SCT065 22/14 A3018 RMK A01
KBBF 161755Z AUTO 04023KT 10SM FEW060 22/14 A3019 RMK A01
KBBF 161735Z AUTO 03023G28KT 10SM SCT060 22/14 A3019 RMK A01
KBBF 161715Z AUTO 03022G28KT 10SM CLR 22/15 A3020 RMK A01
KBBF 161655Z AUTO 03025KT 10SM FEW028 FEW050 FEW085 22/15 A3021 RMK A01
KBBF 161635Z AUTO 04025KT 10SM FEW028 FEW050 22/15 A3021 RMK A01
KBBF 161615Z AUTO 03023G31KT 9SM FEW028 22/15 A3021 RMK A01
KBBF 161555Z AUTO 04025KT 9SM FEW029 22/15 A3020 RMK A01
KBBF 161535Z AUTO 03026KT 10SM SCT028 22/15 A3021 RMK A01
KBBF 161515Z AUTO 03025KT 10SM SCT028 23/15 A3020 RMK A01
KBBF 161455Z AUTO 03025G30KT 10SM SCT028 23/15 A3020 RMK A01
KBBF 161435Z AUTO 04025KT 10SM BKN028 23/16 A3020 RMK A01
KBBF 161415Z AUTO 03023G28KT 9SM BKN028 23/16 A3019 RMK A01
KBBF 161355Z AUTO 05023G32KT 9SM SCT027 BKN090 23/16 A3019 RMK A01
KBBF 161335Z AUTO 04026KT 9SM FEW027 BKN090 23/16 A3017 RMK A01
KBBF 161315Z AUTO 04027KT 9SM FEW027 BKN090 23/16 A3016 RMK A01
KBBF 161255Z AUTO 03026G32KT 9SM OVC085 23/17 A3015 RMK A01
KBBF 161235Z AUTO 04027G34KT 10SM OVC080 23/17 A3014 RMK A01
KBBF 161215Z AUTO 04028KT 9SM OVC075 23/17 A3014 RMK A01
KBBF 161155Z AUTO 04026KT 9SM OVC075 24/17 A3014 RMK A01
KBBF 161135Z AUTO 05027G32KT 9SM FEW041 SCT075 24/17 A3013 RMK A01
KBBF 161115Z AUTO 05028KT 10SM CLR 24/17 A3012 RMK A01
KBBF 161055Z AUTO 04027KT 10SM CLR 24/17 A3011 RMK A01
KBBF 161035Z AUTO 04028KT 10SM CLR 24/16 A3010 RMK A01
KBBF 161015Z AUTO 04026G32KT 10SM CLR 24/17 A3009 RMK A01
KBBF 160955Z AUTO 04026G31KT 9SM FEW042 24/17 A3009 RMK A01
KBBF 160935Z AUTO 04028KT 9SM FEW044 24/17 A3009 RMK A01
KBBF 160915Z AUTO 04032KT 10SM CLR 24/17 A3009 RMK A01
KBBF 160855Z AUTO 04030G35KT 9SM CLR 25/17 A3009 RMK A01
KBBF 160835Z AUTO 04030KT 10SM CLR 25/17 A3010 RMK A01
KBBF 160815Z AUTO 05029KT 9SM CLR 25/17 A3010 RMK A01
KBBF 160755Z AUTO 04028KT 9SM FEW040 SCT048 25/17 A3011 RMK A01
KBBF 160735Z AUTO 04030KT 9SM OVC037 25/17 A3011 RMK A01
KBBF 160715Z AUTO 04029KT 9SM OVC034 25/17 A3011 RMK A01
KBBF 160655Z AUTO 04030KT 9SM BKN033 OVC043 25/17 A3011 RMK A01
KBBF 160635Z AUTO 04028G34KT 9SM BKN034 BKN042 25/18 A3011 RMK A01
KBBF 160615Z AUTO 03030KT 8SM SCT030 BKN038 BKN045 25/18 A3011 RMK A01
KBBF 160555Z AUTO 04031KT 8SM FEW030 BKN037 BKN043 25/18 A3011 RMK A01
KBBF 160535Z AUTO 03030KT 8SM FEW042 25/18 A3011 RMK A01
KBBF 160515Z AUTO 04030KT 8SM CLR 25/19 A3011 RMK A01
KBBF 160455Z AUTO 03029G35KT 7SM FEW048 25/19 A3011 RMK A01
KBBF 160435Z AUTO 03031KT 7SM FEW045 25/19 A3012 RMK A01
KBBF 160415Z AUTO 03027G36KT 7SM FEW043 25/19 A3012 RMK A01
KBBF 160355Z AUTO 03031KT 7SM CLR 25/19 A3012 RMK A01
KBBF 160335Z AUTO 02029G34KT 8SM FEW060 25/19 A3012 RMK A01
KBBF 160315Z AUTO 03031KT 8SM FEW050 BKN060 25/19 A3011 RMK A01
KBBF 160255Z AUTO 02028G34KT 8SM SCT031 SCT042 BKN050 26/19 A3012 RMK A01
KBBF 160235Z AUTO 03030KT 8SM BKN030 26/20 A3011 RMK A01
KBBF 160215Z AUTO 02033KT 9SM SCT030 26/20 A3010 RMK A01
KBBF 160155Z AUTO 02031KT 8SM FEW025 FEW030 SCT037 26/21 A3009 RMK A01
KBBF 160135Z AUTO 02031KT 8SM BKN025 BKN029 OVC048 27/21 A3009 RMK A01
KBBF 160115Z AUTO 02028KT 9SM FEW018 BKN025 OVC047 27/21 A3008 RMK A01
KBBF 160055Z AUTO 05011KT 9SM FEW022 BKN028 BKN035 28/24 A3007 RMK A01
KBBF 160035Z AUTO 04010KT 9SM SCT025 28/24 A3006 RMK A01
KBBF 160015Z AUTO 05010KT 9SM CLR 28/24 A3005 RMK A01
KBBF 152355Z AUTO 07010KT 8SM CLR 28/24 A3004 RMK A01
KBBF 152335Z AUTO 05010KT 9SM CLR 28/24 A3004 RMK A01
KBBF 152315Z AUTO 05011KT 9SM CLR 28/24 A3003 RMK A01
KBBF 152255Z AUTO 06010KT 9SM CLR 28/24 A3003 RMK A01
KBBF 152235Z AUTO 05011KT 9SM CLR 28/23 A3003 RMK A01
KBBF 152215Z AUTO 06010KT 9SM CLR 28/24 A3003 RMK A01
KBBF 152155Z AUTO 05012KT 9SM CLR 28/23 A3002 RMK A01
KBBF 152135Z AUTO 05010KT 9SM CLR 28/23 A3003 RMK A01
KBBF 152115Z AUTO 05011KT 9SM CLR 29/23 A3003 RMK A01
KBBF 152055Z AUTO 05013KT 9SM CLR 28/23 A3002 RMK A01
KBBF 152035Z AUTO 04014KT 9SM CLR 29/23 A3001 RMK A01
KBBF 152015Z AUTO 04016KT 10SM CLR 28/22 A3001 RMK A01
KBBF 151955Z AUTO 03017KT 9SM CLR 28/23 A3003 RMK A01
KBBF 151935Z AUTO 03018KT 9SM CLR 28/23 A3004 RMK A01
KBBF 151915Z AUTO 03018KT CLR 28/23 A3004 RMK A01
KBBF 151855Z AUTO 03015KT 9SM CLR 28/23 A3005 RMK A01
KBBF 151835Z AUTO 03017KT 9SM FEW016 28/23 A3004 RMK A01
KBBF 151815Z AUTO 02020KT 8SM FEW016 28/23 A3005 RMK A01
KBBF 151755Z AUTO 03019KT 9SM CLR 28/23 A3006 RMK A01
KBBF 151735Z AUTO 03020KT 9SM FEW014 27/23 A3007 RMK A01
KBBF 151715Z AUTO 03022KT 8SM SCT014 SCT025 SCT038 27/23 A3008 RMK A01
KBBF 151655Z AUTO 02023KT 9SM SCT015 BKN024 BKN036 27/23 A3008 RMK A01
KBBF 151635Z AUTO 01020KT 8SM SCT015 SCT021 BKN032 28/24 A3009 RMK A01
KBBF 151615Z AUTO 03017KT 9SM SCT016 SCT020 BKN047 28/23 A3008 RMK A01
KBBF 151555Z AUTO 02015KT 10SM SCT016 SCT022 BKN027 28/23 A3008 RMK A01
KBBF 151535Z AUTO 03014KT 9SM BKN018 BKN025 OVC033 28/23 A3008 RMK A01
KBBF 151515Z AUTO 03013KT 10SM BKN022 BKN029 28/23 A3007 RMK A01
KBBF 151455Z AUTO 04011KT 10SM CLR 28/22 A3006 RMK A01
KBBF 151435Z AUTO 04011KT 10SM CLR 28/22 A3006 RMK A01
KBBF 151415Z AUTO 03010KT 10SM CLR 28/21 A3005 RMK A01
KBBF 151355Z AUTO 02007KT 10SM CLR 28/21 A3004 RMK A01
KBBF 151335Z AUTO 03004KT 10SM CLR 28/21 A3003 RMK A01
KBBF 151315Z AUTO 02004KT 10SM CLR 27/21 A3002 RMK A01
KBBF 151255Z AUTO 06004KT 10SM CLR 27/21 A3001 RMK A01
KBBF 151235Z AUTO 00000KT 10SM CLR 27/21 A3000 RMK A01
KBBF 151215Z AUTO 08003KT 10SM CLR 27/21 A3000 RMK A01
KBBF 151155Z AUTO VRB04KT 10SM CLR 27/21 A2999 RMK A01
KBBF 151135Z AUTO 09004KT 10SM CLR 27/21 A2999 RMK A01
KBBF 151115Z AUTO 08004KT 10SM FEW020 FEW025 27/21 A2999 RMK A01
KBBF 151055Z AUTO 06003KT 10SM FEW021 FEW033 27/21 A2999 RMK A01
KBBF 151035Z AUTO 00000KT 10SM FEW031 27/21 A2999 RMK A01
KBBF 151015Z AUTO 00000KT 10SM FEW021 FEW029 SCT034 27/21 A2999 RMK A01
KBBF 150955Z AUTO 00000KT 10SM CLR 27/21 A2998 RMK A01
KBBF 150935Z AUTO VRB04KT 10SM CLR 27/21 A2998 RMK A01
KBBF 150915Z AUTO 09004KT 10SM CLR 27/21 A2997 RMK A01
KBBF 150855Z AUTO 08004KT 10SM SCT022 27/21 A2997 RMK A01
KBBF 150835Z AUTO VRB03KT 10SM BKN022 27/21 A2997 RMK A01
KBBF 150815Z AUTO 15005KT 10SM FEW023 27/21 A2998 RMK A01
KBBF 150755Z AUTO VRB04KT 10SM CLR 27/21 A2998 RMK A01
KBBF 150735Z AUTO VRB05KT 10SM CLR 27/21 A2998 RMK A01
KBBF 150715Z AUTO 14005KT 10SM CLR 27/21 A2999 RMK A01
KBBF 150655Z AUTO 14004KT 10SM CLR 28/21 A2999 RMK A01
KBBF 150635Z AUTO 15006KT 10SM CLR 28/21 A2999 RMK A01
KBBF 150615Z AUTO 15007KT 10SM CLR 28/21 A3000 RMK A01
KBBF 150555Z AUTO VRB04KT 10SM FEW025 FEW034 28/21 A3000 RMK A01
KBBF 150535Z AUTO VRB05KT 9SM FEW024 SCT034 28/22 A3001 RMK A01
KBBF 150515Z AUTO VRB05KT 9SM CLR 28/21 A3001 RMK A01
KBBF 150455Z AUTO VRB07KT 9SM CLR 28/21 A3001 RMK A01
KBBF 150435Z AUTO 14008KT 080V160 9SM CLR 28/21 A3001 RMK A01
KBBF 150415Z AUTO VRB04KT 10SM CLR 28/21 A3001 RMK A01
KBBF 150355Z AUTO 14006KT 9SM CLR 28/21 A3001 RMK A01
KBBF 150335Z AUTO 14007KT 9SM CLR 29/22 A3001 RMK A01
KBBF 150315Z AUTO 14009G14KT 090V160 9SM FEW034 28/22 A3001 RMK A01
KBBF 150255Z AUTO 14010KT 9SM CLR 28/22 A3001 RMK A01
KBBF 150235Z AUTO 14010KT 10SM CLR 28/21 A3001 RMK A01
KBBF 150215Z AUTO 15009KT 9SM CLR 28/22 A3001 RMK A01
KBBF 150155Z AUTO 14008G14KT 9SM FEW024 FEW035 28/22 A3001 RMK A01
KBBF 150135Z AUTO 14008G13KT 110V170 9SM FEW022 SCT026 SCT033 28/22 A3001 RMK A01
KBBF 150115Z AUTO 14007KT 090V150 8SM FEW049 29/23 A3000 RMK A01
KBBF 150055Z AUTO 11007KT 090V170 10SM FEW025 SCT032 29/23 A2999 RMK A01
KBBF 150035Z AUTO 11007KT 090V150 10SM SCT022 SCT027 BKN031 28/23 A2998 RMK A01
KBBF 150010Z AUTO 10010KT 10SM SCT021 SCT027 28/23 A2998 RMK A01
KBBF 142355Z AUTO 11007KT 090V170 10SM CLR 28/23 A2998 RMK A01
KBBF 142335Z AUTO 11009KT 10SM CLR 28/23 A2998 RMK A01
KBBF 142315Z AUTO 10006KT 10SM CLR 29/22 A2998 RMK A01
KBBF 142255Z AUTO 11006KT 10SM CLR 29/22 A2998 RMK A01
KBBF 142235Z AUTO VRB06KT 10SM CLR 29/22 A2998 RMK A01
KBBF 142215Z AUTO VRB05KT 9SM CLR 29/22 A2998 RMK A01
KBBF 142155Z AUTO 14008KT 10SM CLR 29/22 A2998 RMK A01
KBBF 142135Z AUTO 14009KT 9SM CLR 29/22 A2998 RMK A01
KBBF 142115Z AUTO VRB05G10KT 9SM FEW023 29/22 A2999 RMK A01
KBBF 142055Z AUTO VRB06G11KT 10SM FEW023 29/22 A2998 RMK A01
KBBF 142035Z AUTO VRB06KT 9SM SCT023 SCT032 29/23 A2999 RMK A01
KBBF 142015Z AUTO 11006KT 9SM FEW021 FEW031 29/23 A2999 RMK A01
KBBF 141955Z AUTO VRB06G11KT 9SM FEW023 FEW029 29/22 A2999 RMK A01
KBBF 141935Z AUTO VRB04G11KT 9SM SCT024 SCT029 29/22 A3000 RMK A01
KBBF 141915Z AUTO 15010KT 9SM SCT024 29/22 A3000 RMK A01
KBBF 141855Z AUTO 11007KT 080V150 9SM SCT022 29/22 A3001 RMK A01
KBBF 141835Z AUTO 11006KT 9SM SCT023 29/22 A3002 RMK A01
KBBF 141815Z AUTO 10007KT 080V140 10SM CLR 30/22 A3003 RMK A01
KBBF 141755Z AUTO VRB05KT 9SM CLR 30/22 A3004 RMK A01
KBBF 141735Z AUTO VRB04KT 9SM CLR 30/22 A3005 RMK A01
KBBF 141715Z AUTO VRB04KT 9SM FEW024 FEW032 30/22 A3005 RMK A01
KBBF 141655Z AUTO VRB03G11KT 9SM FEW025 29/22 A3006 RMK A01
KBBF 141635Z AUTO VRB04G11KT 9SM CLR 29/22 A3006 RMK A01
KBBF 141615Z AUTO 14010KT 10SM CLR 29/21 A3006 RMK A01
KBBF 141555Z AUTO 15010KT 9SM FEW025 29/22 A3006 RMK A01
KBBF 141535Z AUTO 15011KT 10SM FEW025 29/22 A3006 RMK A01
KBBF 141515Z AUTO 15010KT 9SM FEW026 29/22 A3006 RMK A01
KBBF 141450Z AUTO 15011KT 8SM CLR 29/22 A3006 RMK A01
KBBF 141430Z AUTO 15011KT 9SM FEW023 SCT029 28/22 A3005 RMK A01
KBBF 141415Z AUTO 14011KT 9SM SCT023 SCT029 28/22 A3005 RMK A01
KBBF 141355Z AUTO 15012KT 8SM CLR 28/22 A3004 RMK A01
KBBF 141335Z AUTO 14012KT 9SM FEW020 FEW026 SCT040 28/23 A3004 RMK A01
KBBF 141315Z AUTO VRB05G12KT 8SM SCT019 BKN026 BKN032 29/23 A3004 RMK A01
KBBF 141255Z AUTO 11006KT 8SM FEW018 SCT025 SCT031 29/24 A3003 RMK A01
KBBF 141235Z AUTO VRB04G12KT 8SM SCT020 BKN026 BKN031 29/24 A3003 RMK A01
KBBF 141215Z AUTO VRB04G10KT 7SM BKN020 BKN026 29/24 A3003 RMK A01
KBBF 141155Z AUTO 14008KT 090V160 8SM SCT020 BKN027 28/24 A3003 RMK A01
KBBF 141135Z AUTO 14010KT 9SM BKN020 BKN026 28/23 A3002 RMK A01
KBBF 141115Z AUTO 14010KT 6SM HZ SCT020 BKN025 29/24 A3002 RMK A01
KBBF 141055Z AUTO 14009G14KT 100V160 8SM SCT019 SCT025 28/24 A3002 RMK A01
KBBF 141035Z AUTO 14010KT 8SM CLR 28/23 A3001 RMK A01
KBBF 141015Z AUTO 14010KT 7SM FEW019 FEW039 29/24 A3001 RMK A01
KBBF 140955Z AUTO 15012KT 7SM SCT020 28/23 A3001 RMK A01
KBBF 140935Z AUTO 14011KT 7SM SCT020 28/24 A3001 RMK A01
KBBF 140915Z AUTO 14012KT 8SM SCT019 28/24 A3001 RMK A01
KBBF 140855Z AUTO 15012KT 6SM HZ SCT019 BKN024 BKN029 29/24 A3001 RMK A01
KBBF 140835Z AUTO VRB05G15KT 6SM HZ SCT021 SCT029 29/24 A3001 RMK A01
KBBF 140815Z AUTO 14010KT 100V160 6SM HZ CLR 29/23 A3002 RMK A01
KBBF 140755Z AUTO 14011KT 7SM SCT017 SCT021 SCT025 29/24 A3002 RMK A01
KBBF 140735Z AUTO VRB05G11KT 7SM SCT019 SCT024 29/24 A3003 RMK A01
KBBF 140715Z AUTO 14008G15KT 7SM SCT019 SCT023 29/24 A3003 RMK A01
KBBF 140655Z AUTO VRB06G11KT 9SM CLR 29/23 A3003 RMK A01
KBBF 140635Z AUTO VRB04G11KT 8SM FEW019 29/23 A3003 RMK A01
KBBF 140615Z AUTO VRB04G13KT 8SM FEW020 29/24 A3003 RMK A01
KBBF 140555Z AUTO VRB05G14KT 9SM BKN020 29/24 A3003 RMK A01
KBBF 140535Z AUTO VRB05G11KT 8SM FEW021 29/24 A3003 RMK A01
KBBF 140515Z AUTO VRB04G13KT 8SM CLR 29/23 A3003 RMK A01
KBBF 140455Z AUTO VRB03G11KT 10SM CLR 29/23 A3004 RMK A01
KBBF 140435Z AUTO VRB05G16KT 9SM FEW019 29/23 A3004 RMK A01
KBBF 140415Z AUTO VRB04G13KT 9SM FEW019 29/24 A3005 RMK A01
KBBF 140355Z AUTO 11010G18KT 090V240 9SM FEW019 29/23 A3004 RMK A01
KBBF 140335Z AUTO 11010G17KT 080V140 9SM CLR 29/23 A3004 RMK A01
KBBF 140315Z AUTO 10011G16KT 8SM CLR 28/24 A3004 RMK A01
KBBF 140255Z AUTO 11013KT 9SM CLR 28/24 A3004 RMK A01
KBBF 140235Z AUTO 11011G16KT 9SM CLR 28/23 A3004 RMK A01
KBBF 140215Z AUTO 10009G16KT 9SM CLR 28/24 A3003 RMK A01
KBBF 140155Z AUTO 10010KT 8SM CLR 28/24 A3003 RMK A01
KBBF 140135Z AUTO 11011KT 9SM CLR 28/24 A3003 RMK A01
KBBF 140115Z AUTO 10011KT 8SM CLR 28/24 A3002 RMK A01
KBBF 140055Z AUTO 10011KT 9SM FEW017 28/23 A3002 RMK A01
KBBF 140035Z AUTO 11011KT 9SM SCT017 28/24 A3002 RMK A01
KBBF 140015Z AUTO 11011KT 9SM FEW017 28/24 A3001 RMK A01
KBBF 132355Z AUTO 10012KT 8SM FEW016 28/24 A3001 RMK A01
KBBF 132335Z AUTO 10010KT 8SM FEW016 28/24 A3001 RMK A01
KBBF 132315Z AUTO 09014KT 9SM SCT016 SCT021 28/24 A3000 RMK A01
KBBF 132255Z AUTO 09014KT 9SM FEW017 28/24 A3000 RMK A01
KBBF 132235Z AUTO 09013KT FEW016 FEW021 28/24 A3000 RMK A01
KBBF 132215Z AUTO 09012KT 9SM FEW017 28/24 A3001 RMK A01
KBBF 132155Z AUTO 08012KT 9SM FEW017 SCT021 SCT026 28/24 A3001 RMK A01
KBBF 132135Z AUTO 09012KT 9SM SCT017 BKN023 BKN029 28/24 A3001 RMK A01
KBBF 132115Z AUTO 08012KT 9SM BKN016 BKN022 28/24 A3001 RMK A01
KBBF 131925Z AUTO 10009KT 9SM FEW017 28/24 A3003 RMK A01
KBBF 131915Z AUTO 09010KT 9SM FEW017 28/24 A3004 RMK A01
KBBF 131855Z AUTO 09009KT 10SM FEW016 29/24 A3004 RMK A01
KBBF 131835Z AUTO 09010KT 10SM FEW018 29/24 A3005 RMK A01
KBBF 131815Z AUTO 09010KT 10SM CLR 29/23 A3006 RMK A01
KBBF 131755Z AUTO 10008KT 10SM CLR 29/24 A3007 RMK A01
KBBF 131735Z AUTO 09009KT 10SM FEW016 29/24 A3008 RMK A01
KBBF 131715Z AUTO 08008KT 10SM FEW017 29/24 A3009 RMK A01
KBBF 131655Z AUTO 10007KT 10SM CLR 29/23 A3009 RMK A01
KBBF 131635Z AUTO 10007KT 10SM CLR 29/23 A3010 RMK A01
KBBF 131615Z AUTO 09008KT 10SM CLR 29/23 A3009 RMK A01
KBBF 131555Z AUTO 08007KT 9SM CLR 29/24 A3009 RMK A01
KBBF 131535Z AUTO 09007KT 10SM CLR 29/23 A3009 RMK A01
KBBF 131515Z AUTO 09007KT 10SM CLR 29/23 A3009 RMK A01
KBBF 131455Z AUTO 09007KT 10SM CLR 29/23 A3009 RMK A01
KBBF 131435Z AUTO 10007KT 10SM FEW042 29/23 A3008 RMK A01
KBBF 131415Z AUTO 09007KT 10SM CLR 29/23 A3008 RMK A01
KBBF 131355Z AUTO 09006KT 10SM CLR 28/23 A3007 RMK A01
KBBF 131335Z AUTO VRB04KT 10SM CLR 28/23 A3007 RMK A01
KBBF 131315Z AUTO VRB05KT 10SM CLR 28/23 A3007 RMK A01
KBBF 131255Z AUTO VRB05KT 10SM CLR 28/23 A3006 RMK A01
KBBF 131235Z AUTO VRB05KT 10SM CLR 28/23 A3005 RMK A01
KBBF 131215Z AUTO VRB04KT 10SM CLR 28/23 A3005 RMK A01
KBBF 131155Z AUTO VRB04KT 10SM CLR 28/23 A3005 RMK A01
KBBF 131135Z AUTO VRB04KT 10SM FEW019 28/23 A3004 RMK A01
KBBF 131115Z AUTO VRB04KT 9SM SCT018 SCT024 28/23 A3004 RMK A01
KBBF 131055Z AUTO VRB05KT 9SM SCT019 BKN025 28/23 A3003 RMK A01
KBBF 131035Z AUTO VRB03KT 10SM BKN019 BKN025 BKN030 28/23 A3003 RMK A01
KBBF 131015Z AUTO 16007KT 10SM FEW020 SCT025 SCT030 28/23 A3003 RMK A01
KBBF 130955Z AUTO VRB04G10KT 10SM FEW020 28/23 A3002 RMK A01
KBBF 130935Z AUTO VRB04KT 10SM CLR 28/23 A3002 RMK A01
KBBF 130915Z AUTO VRB05KT 10SM FEW019 28/23 A3002 RMK A01
KBBF 130855Z AUTO VRB04KT 9SM SCT018 SCT028 28/23 A3002 RMK A01
KBBF 130835Z AUTO VRB06KT 8SM SCT018 BKN028 28/23 A3002 RMK A01
KBBF 130815Z AUTO 10006KT 8SM SCT017 28/23 A3002 RMK A01
KBBF 130755Z AUTO VRB05KT 9SM CLR 28/23 A3002 RMK A01
KBBF 130735Z AUTO 10007KT 9SM BKN019 28/23 A3002 RMK A01
KBBF 130715Z AUTO 10007KT 9SM SCT019 28/23 A3002 RMK A01
KBBF 130655Z AUTO 11008KT 10SM CLR 28/23 A3002 RMK A01
KBBF 130635Z AUTO VRB06KT 10SM FEW019 28/23 A3003 RMK A01
KBBF 130615Z AUTO VRB05KT 10SM SCT019 28/23 A3003 RMK A01
KBBF 130555Z AUTO VRB04G11KT 10SM FEW018 28/23 A3003 RMK A01
KBBF 130535Z AUTO 14007KT 9SM SCT018 28/23 A3003 RMK A01
KBBF 130515Z AUTO VRB04G10KT 9SM FEW018 28/23 A3003 RMK A01
KBBF 130455Z AUTO VRB05G11KT 10SM CLR 28/23 A3003 RMK A01
KBBF 130435Z AUTO VRB05G10KT 10SM FEW018 FEW027 28/23 A3003 RMK A01
KBBF 130415Z AUTO VRB05KT 9SM FEW018 28/23 A3003 RMK A01
KBBF 130355Z AUTO 11007KT 090V150 9SM CLR 28/23 A3003 RMK A01
KBBF 130335Z AUTO 11008KT 090V150 9SM CLR 28/23 A3003 RMK A01
KBBF 130315Z AUTO 11007KT 9SM SCT018 28/23 A3003 RMK A01
KBBF 130255Z AUTO VRB06G12KT 9SM SCT019 SCT024 28/23 A3003 RMK A01
KBBF 130235Z AUTO 7.00000007KT 070V130 10SM SCT020 28/23 A3003 RMK A01
KBBF 130215Z AUTO 11007KT 10SM FEW019 28/23 A3002 RMK A01
KBBF 130155Z AUTO 10007KT 9SM FEW020 FEW027 28/23 A3002 RMK A01
KBBF 130135Z AUTO VRB06KT 9SM SCT019 BKN027 28/23 A3002 RMK A01
KBBF 130115Z AUTO 11007KT 080V150 9SM FEW019 28/23 A3002 RMK A01
KBBF 130050Z AUTO 11008KT 080V140 9SM FEW019 29/23 A3001 RMK A01
KBBF 130035Z AUTO 11008KT 10SM CLR 28/23 A3000 RMK A01
KBBF 130015Z AUTO 11008KT 9SM FEW019 28/23 A3000 RMK A01
KBBF 122355Z AUTO 11007KT 9SM FEW019 29/23 A3000 RMK A01
KBBF 122335Z AUTO 11008KT 090V190 10SM CLR 29/23 A2999 RMK A01
KBBF 122315Z AUTO 11008G13KT 10SM CLR 29/23 A2999 RMK A01
KBBF 122255Z AUTO 10008KT 9SM FEW019 29/23 A2999 RMK A01
KBBF 122235Z AUTO 11009KT 10SM FEW018 29/23 A2999 RMK A01
KBBF 122215Z AUTO 11010KT 9SM FEW019 29/23 A2999 RMK A01
KBBF 122155Z AUTO 10009KT 10SM CLR 28/23 A2999 RMK A01
KBBF 122135Z AUTO 10010KT 10SM CLR 28/23 A3000 RMK A01
KBBF 122115Z AUTO 11010KT 10SM CLR 28/23 A3000 RMK A01
KBBF 122055Z AUTO 10010KT 9SM FEW017 28/23 A3000 RMK A01
KBBF 122035Z AUTO 10009KT 9SM CLR 28/23 A3000 RMK A01
KBBF 122015Z AUTO 10010KT 9SM CLR 28/23 A3000 RMK A01
KBBF 121955Z AUTO 09011KT 10SM CLR 28/23 A3000 RMK A01
KBBF 121935Z AUTO 09011KT 10SM CLR 28/23 A3001 RMK A01
KBBF 121915Z AUTO 10009KT 9SM CLR 28/23 A3002 RMK A01
KBBF 121855Z AUTO 09011KT 9SM CLR 28/23 A3003 RMK A01
KBBF 121835Z AUTO 10008KT 10SM FEW019 28/23 A3004 RMK A01
KBBF 121815Z AUTO 10009KT 9SM SCT018 SCT023 BKN028 28/23 A3005 RMK A01
KBBF 121755Z AUTO 08010KT 9SM SCT018 BKN023 BKN028 28/23 A3006 RMK A01
KBBF 121735Z AUTO 08011KT 9SM SCT019 SCT025 28/23 A3006 RMK A01
KBBF 121715Z AUTO 09012KT 9SM SCT019 SCT026 28/23 A3006 RMK A01
KBBF 121655Z AUTO 09013KT 9SM FEW020 28/23 A3007 RMK A01
KBBF 121635Z AUTO 08012KT 8SM FEW024 FEW029 FEW037 28/23 A3007 RMK A01
KBBF 121615Z AUTO 08012KT 9SM SCT024 SCT035 SCT044 28/23 A3007 RMK A01
KBBF 121555Z AUTO 07011KT 9SM SCT019 BKN026 BKN034 28/23 A3007 RMK A01
KBBF 121535Z AUTO 08011KT 9SM BKN019 BKN026 28/23 A3007 RMK A01
KBBF 121515Z AUTO 08011KT 9SM SCT019 BKN026 28/23 A3006 RMK A01
KBBF 121455Z AUTO 09011KT 8SM SCT019 BKN026 28/23 A3006 RMK A01
KBBF 121435Z AUTO 07011KT 8SM SCT017 SCT022 SCT027 28/23 A3006 RMK A01
KBBF 121415Z AUTO 08010KT 8SM SCT018 SCT023 BKN027 28/23 A3006 RMK A01
KBBF 121355Z AUTO 07011KT 8SM SCT020 SCT032 28/23 A3006 RMK A01
KBBF 121335Z AUTO 06011KT 8SM FEW025 28/23 A3005 RMK A01
KBBF 121315Z AUTO 07010KT 8SM SCT020 BKN026 28/23 A3004 RMK A01
KBBF 121255Z AUTO 07011KT 8SM SCT019 BKN026 BKN035 27/23 A3004 RMK A01
KBBF 121235Z AUTO 08010KT 8SM FEW016 SCT025 SCT029 27/23 A3003 RMK A01
KBBF 121215Z AUTO 07011KT 8SM SCT024 BKN029 27/23 A3002 RMK A01
KBBF 121155Z AUTO 07011KT 8SM BKN023 BKN027 27/23 A3002 RMK A01
KBBF 121135Z AUTO 08010KT 8SM BKN021 27/23 A3002 RMK A01
KBBF 121115Z AUTO 07011KT 8SM BKN018 BKN023 27/23 A3002 RMK A01
KBBF 121055Z AUTO 07012KT 8SM FEW017 27/23 A3001 RMK A01
KBBF 121035Z AUTO 07012KT 8SM CLR 27/23 A3001 RMK A01
KBBF 121015Z AUTO 08013KT 8SM CLR 27/23 A3001 RMK A01
KBBF 120955Z AUTO 08013KT 8SM CLR 27/23 A3000 RMK A01
KBBF 120935Z AUTO 07013KT 9SM CLR 27/23 A3000 RMK A01
KBBF 120915Z AUTO 08014KT 8SM CLR 27/23 A3000 RMK A01
KBBF 120850Z AUTO 08014KT 9SM CLR 27/22 A3001 RMK A01
KBBF 120835Z AUTO 08014KT 9SM FEW018 27/22 A3001 RMK A01
KBBF 120815Z AUTO 08014KT 8SM FEW018 FEW023 SCT050 27/22 A3001 RMK A01
KBBF 120755Z AUTO 07013KT 8SM FEW019 SCT038 BKN050 27/22 A3002 RMK A01
KBBF 120735Z AUTO 08013KT 7SM SCT040 BKN048 OVC065 27/22 A3003 RMK A01
KBBF 120715Z AUTO 08012KT 8SM SCT050 OVC065 27/22 A3003 RMK A01
KBBF 120655Z AUTO 07012KT 8SM FEW020 FEW028 OVC050 27/22 A3003 RMK A01
KBBF 120635Z AUTO 07012KT 9SM FEW019 SCT029 BKN036 27/22 A3003 RMK A01
KBBF 120615Z AUTO 08011KT 9SM FEW027 BKN033 OVC049 27/22 A3004 RMK A01
KBBF 120555Z AUTO 08011KT 9SM SCT019 BKN030 OVC043 27/22 A3005 RMK A01
KBBF 120535Z AUTO 07012KT 9SM BKN019 OVC028 27/22 A3005 RMK A01
KBBF 120515Z AUTO 08010KT 9SM SCT019 BKN030 OVC042 26/22 A3005 RMK A01
KBBF 120455Z AUTO 07012KT 9SM FEW018 BKN027 OVC043 26/22 A3006 RMK A01
KBBF 120435Z AUTO 08012KT 9SM FEW020 BKN027 OVC043 26/22 A3006 RMK A01
KBBF 120415Z AUTO 08013KT 9SM FEW022 SCT028 OVC044 26/21 A3007 RMK A01
KBBF 120355Z AUTO 08015KT 9SM FEW022 FEW031 OVC044 27/21 A3007 RMK A01
KBBF 120335Z AUTO 08015KT 8SM BKN042 27/21 A3007 RMK A01
KBBF 120315Z AUTO 08014KT 8SM FEW021 FEW029 BKN042 26/21 A3006 RMK A01
KBBF 120255Z AUTO 07012KT 8SM FEW021 FEW029 OVC042 26/21 A3006 RMK A01
KBBF 120235Z AUTO 07014KT 8SM FEW022 FEW029 BKN041 26/21 A3005 RMK A01
KBBF 120215Z AUTO 07014KT 10SM SCT022 SCT029 BKN039 26/21 A3005 RMK A01
KBBF 120155Z AUTO 05015KT 10SM SCT022 SCT040 26/20 A3003 RMK A01
KBBF 120135Z AUTO 06017KT 10SM CLR 26/20 A3003 RMK A01
KBBF 120115Z AUTO 06014KT 10SM CLR 26/19 A3003 RMK A01
KBBF 120055Z AUTO 06015KT 10SM CLR 26/19 A3002 RMK A01
KBBF 120035Z AUTO 05013KT 10SM CLR 26/19 A3003 RMK A01
KBBF 120015Z AUTO 05015KT 10SM CLR 25/18 A3003 RMK A01
KBBF 112355Z AUTO 04013KT 10SM CLR 25/18 A3004 RMK A01
KBBF 112335Z AUTO 04012KT 10SM CLR 25/18 A3004 RMK A01
KBBF 112315Z AUTO 04012KT 10SM CLR 25/18 A3005 RMK A01
KBBF 112255Z AUTO 04012KT 10SM CLR 25/18 A3005 RMK A01
KBBF 112235Z AUTO 03013KT 10SM SCT085 25/18 A3004 RMK A01
KBBF 112215Z AUTO 03014KT 10SM BKN085 25/18 A3005 RMK A01
KBBF 112155Z AUTO 03013KT 10SM FEW085 25/18 A3006 RMK A01
KBBF 112135Z AUTO 04014KT 10SM FEW085 25/18 A3006 RMK A01
KBBF 112115Z AUTO 03013KT 10SM CLR 24/18 A3007 RMK A01
KBBF 112055Z AUTO 03015KT 10SM FEW021 24/18 A3006 RMK A01
KBBF 112035Z AUTO 03013KT 10SM OVC020 24/19 A3007 RMK A01
KBBF 112015Z AUTO 04013G18KT 9SM OVC019 24/19 A3007 RMK A01
KBBF 111955Z AUTO 04016KT 9SM OVC018 24/19 A3007 RMK A01
KBBF 111935Z AUTO 04018KT 9SM OVC017 24/19 A3007 RMK A01
KBBF 111915Z AUTO 04018KT 9SM OVC017 24/19 A3007 RMK A01
KBBF 111855Z AUTO 05018KT 9SM OVC016 24/20 A3008 RMK A01
KBBF 111835Z AUTO 04016G22KT 9SM OVC016 24/20 A3009 RMK A01
KBBF 111815Z AUTO 04017KT 8SM OVC017 24/20 A3009 RMK A01
KBBF 111755Z AUTO 04018KT 8SM OVC016 24/20 A3010 RMK A01
KBBF 111735Z AUTO 04016G22KT 9SM OVC016 24/20 A3011 RMK A01
KBBF 111715Z AUTO 04019KT 9SM OVC017 24/20 A3010 RMK A01
KBBF 111655Z AUTO 05020KT 9SM OVC016 24/20 A3010 RMK A01
KBBF 111635Z AUTO 05021KT 9SM OVC017 24/19 A3011 RMK A01
KBBF 111615Z AUTO 05021KT 9SM OVC017 24/19 A3011 RMK A01
KBBF 111555Z AUTO 05021KT 9SM OVC017 23/19 A3011 RMK A01
KBBF 111535Z AUTO 04022KT 9SM OVC018 23/19 A3010 RMK A01
KBBF 111515Z AUTO 05023KT 9SM OVC018 23/19 A3009 RMK A01
KBBF 111455Z AUTO 04021KT 9SM OVC018 23/19 A3009 RMK A01
KBBF 111435Z AUTO 05021KT 9SM OVC019 24/19 A3010 RMK A01
KBBF 111415Z AUTO 04022KT 9SM OVC019 24/19 A3009 RMK A01
KBBF 111355Z AUTO 04023KT 9SM OVC019 24/19 A3008 RMK A01
KBBF 111335Z AUTO 05023KT 9SM BKN020 24/19 A3007 RMK A01
KBBF 111315Z AUTO 04022KT 9SM BKN020 24/19 A3006 RMK A01
KBBF 111255Z AUTO 04021KT 9SM FEW019 24/19 A3007 RMK A01
KBBF 111235Z AUTO 05021KT 9SM SCT021 24/19 A3006 RMK A01
KBBF 111215Z AUTO 05020KT 10SM OVC021 24/19 A3006 RMK A01
KBBF 111155Z AUTO 05022KT 9SM BKN021 24/19 A3006 RMK A01
KBBF 111135Z AUTO 05023KT 10SM SCT022 SCT031 24/18 A3005 RMK A01
KBBF 111115Z AUTO 05022KT 10SM FEW023 FEW031 24/18 A3004 RMK A01
KBBF 111055Z AUTO 05023KT 10SM SCT022 SCT028 SCT034 24/18 A3004 RMK A01
KBBF 111035Z AUTO 05023KT 10SM OVC021 24/18 A3003 RMK A01
KBBF 111015Z AUTO 05024KT 10SM BKN021 BKN080 24/18 A3003 RMK A01
KBBF 110955Z AUTO 05022KT 10SM FEW024 FEW080 24/18 A3003 RMK A01
KBBF 110935Z AUTO 05026KT 10SM BKN024 24/18 A3002 RMK A01
KBBF 110915Z AUTO 06023G28KT 10SM OVC024 24/18 A3003 RMK A01
KBBF 110855Z AUTO 05024KT 10SM OVC024 24/18 A3002 RMK A01
KBBF 110835Z AUTO 05024KT 10SM OVC025 24/18 A3002 RMK A01
KBBF 110815Z AUTO 05023KT 10SM OVC025 25/18 A3003 RMK A01
KBBF 110755Z AUTO 05022G28KT 10SM OVC025 25/19 A3003 RMK A01
KBBF 110735Z AUTO 05021G26KT 10SM BKN024 BKN048 25/18 A3004 RMK A01
KBBF 110715Z AUTO 05023KT 10SM CLR 25/18 A3004 RMK A01
KBBF 110655Z AUTO 05023KT 10SM CLR 25/18 A3004 RMK A01
KBBF 110635Z AUTO 05022KT 10SM CLR 25/18 A3004 RMK A01
KBBF 110615Z AUTO 04023KT 10SM CLR 25/18 A3004 RMK A01
KBBF 110555Z AUTO 04024KT 10SM CLR 25/18 A3004 RMK A01
KBBF 110535Z AUTO 04022KT 10SM CLR 25/18 A3004 RMK A01
KBBF 110515Z AUTO 04024G30KT 10SM CLR 25/18 A3005 RMK A01
KBBF 110455Z AUTO 04023KT 10SM FEW055 25/18 A3005 RMK A01
KBBF 110435Z AUTO 04025KT 10SM CLR 25/18 A3006 RMK A01
KBBF 110415Z AUTO 04024KT 10SM CLR 25/18 A3005 RMK A01
KBBF 110355Z AUTO 03023KT 10SM CLR 25/18 A3006 RMK A01
KBBF 110335Z AUTO 03024KT 10SM CLR 25/18 A3005 RMK A01
KBBF 110315Z AUTO 03024KT 10SM SCT046 25/18 A3006 RMK A01
KBBF 110255Z AUTO 03021KT 10SM OVC045 25/19 A3006 RMK A01
KBBF 110235Z AUTO 03021KT 10SM BKN044 OVC060 25/20 A3006 RMK A01
KBBF 110215Z AUTO 04023KT 10SM SCT047 OVC060 26/19 A3005 RMK A01
KBBF 110155Z AUTO 04022KT 10SM SCT041 OVC060 26/20 A3005 RMK A01
KBBF 110135Z AUTO 04023KT 10SM SCT045 OVC060 25/19 A3004 RMK A01
KBBF 110115Z AUTO 04023KT 10SM OVC046 25/20 A3004 RMK A01
KBBF 110055Z AUTO 04023KT 10SM BKN046 25/19 A3003 RMK A01
KBBF 110035Z AUTO 04023KT 10SM CLR 25/20 A3003 RMK A01
KBBF 110015Z AUTO 05024KT 10SM FEW110 25/20 A3002 RMK A01
KBBF 102355Z AUTO 05024KT 9SM BKN110 25/20 A3001 RMK A01
KBBF 102335Z AUTO 05023KT 9SM BKN110 24/19 A3002 RMK A01
KBBF 102315Z AUTO 04025KT 9SM CLR 24/19 A3001 RMK A01
KBBF 102255Z AUTO 04023G28KT 9SM CLR 24/19 A3002 RMK A01
KBBF 102235Z AUTO 04024KT 10SM CLR 24/20 A3000 RMK A01
KBBF 102215Z AUTO 03026KT 10SM CLR 24/19 A3001 RMK A01
KBBF 102155Z AUTO 04027KT 9SM CLR 24/19 A3001 RMK A01
KBBF 102135Z AUTO 03026KT 9SM CLR 23/19 A3001 RMK A01
KBBF 102115Z AUTO 03026KT 9SM FEW014 23/19 A3001 RMK A01
KBBF 102055Z AUTO 02027KT 9SM FEW014 FEW080 23/19 A3001 RMK A01
KBBF 102035Z AUTO 03026KT 8SM FEW014 SCT080 23/20 A3001 RMK A01
KBBF 102015Z AUTO 03025KT 7SM FEW009 SCT090 23/20 A3001 RMK A01
KBBF 101955Z AUTO 03026KT 8SM FEW008 SCT085 23/21 A3001 RMK A01
KBBF 101935Z AUTO 03026KT 7SM SCT006 SCT085 23/21 A3002 RMK A01
KBBF 101915Z AUTO 03024KT 5SM BR SCT006 SCT026 23/21 A3003 RMK A01
KBBF 101855Z AUTO 03024KT 3SM BR FEW007 SCT026 SCT041 23/21 A3003 RMK A01
KBBF 101835Z AUTO 02026KT 3SM BR FEW010 FEW018 SCT047 23/20 A3003 RMK A01
KBBF 101815Z AUTO 02026KT 1 1/4SM HZ SCT007 BKN016 BKN040 22/20 A3004 RMK A01
KBBF 101755Z AUTO 02025KT 1SM HZ BKN010 BKN015 23/21 A3003 RMK A01
KBBF 101735Z AUTO 02019G25KT 5SM HZ SCT009 BKN015 OVC048 24/21 A3004 RMK A01
KBBF 101715Z AUTO 20014KT 5SM HZ FEW014 SCT021 BKN037 27/24 A3003 RMK A01
KBBF 101655Z AUTO 20013KT 7SM BKN019 BKN027 OVC044 27/23 A3002 RMK A01
KBBF 101635Z AUTO VRB04KT 9SM FEW019 SCT029 OVC038 28/23 A3003 RMK A01
KBBF 101615Z AUTO 05006KT 8SM FEW029 OVC036 27/23 A3002 RMK A01
KBBF 101555Z AUTO 05008KT 6SM HZ BKN034 27/23 A3001 RMK A01
KBBF 101535Z AUTO 10007KT 1 1/4SM HZ BKN028 BKN035 27/23 A3001 RMK A01 VIS 1/2V2 1/2
KBBF 101515Z AUTO 15010KT 9SM SCT026 28/24 A3000 RMK A01
KBBF 101455Z AUTO 16011KT 10SM FEW055 28/23 A3000 RMK A01
KBBF 101435Z AUTO 16009KT 9SM SCT050 SCT060 28/24 A2998 RMK A01
KBBF 101415Z AUTO 17011KT 9SM SCT055 28/24 A2998 RMK A01
KBBF 101355Z AUTO 18011KT 8SM CLR 28/24 A2998 RMK A01
KBBF 101335Z AUTO 18012KT 9SM CLR 28/24 A2997 RMK A01
KBBF 101315Z AUTO 17011KT 9SM CLR 28/23 A2997 RMK A01
KBBF 101255Z AUTO 16015KT 8SM SCT110 28/24 A2997 RMK A01
KBBF 101235Z AUTO 16013KT 9SM FEW026 SCT110 28/24 A2996 RMK A01
KBBF 101215Z AUTO 16018KT 9SM FEW015 FEW022 SCT035 28/24 A2995 RMK A01
KBBF 101155Z AUTO 15013KT 9SM FEW018 SCT029 SCT034 29/25 A2994 RMK A01
KBBF 101135Z AUTO 15013KT 8SM FEW016 SCT020 SCT029 29/25 A2993 RMK A01
KBBF 101115Z AUTO 15010KT 8SM CLR 29/25 A2993 RMK A01
KBBF 101055Z AUTO 14007KT 100V160 7SM CLR 29/25 A2991 RMK A01
KBBF 101035Z AUTO 16012KT 7SM CLR 29/25 A2991 RMK A01
KBBF 101015Z AUTO 16012KT 7SM CLR 29/25 A2990 RMK A01
KBBF 100955Z AUTO 16013KT 6SM HZ CLR 28/25 A2989 RMK A01
KBBF 100935Z AUTO 16012KT 6SM HZ FEW014 29/25 A2989 RMK A01
KBBF 100915Z AUTO 17010KT 7SM FEW016 29/25 A2989 RMK A01
KBBF 100855Z AUTO 16012KT 7SM CLR 29/25 A2988 RMK A01
KBBF 100835Z AUTO 17011KT 7SM FEW019 FEW029 FEW037 29/25 A2988 RMK A01
KBBF 100815Z AUTO 16011KT 5SM HZ FEW017 SCT050 BKN065 28/25 A2988 RMK A01
KBBF 100755Z AUTO 15010KT 9SM FEW019 FEW050 FEW070 29/25 A2988 RMK A01
KBBF 100735Z AUTO 17010KT 8SM CLR 29/25 A2988 RMK A01
KBBF 100715Z AUTO 18011KT 9SM CLR 29/25 A2988 RMK A01
KBBF 100655Z AUTO 17014KT 9SM CLR 29/25 A2988 RMK A01
KBBF 100635Z AUTO 18013KT 9SM CLR 29/25 A2988 RMK A01
KBBF 100615Z AUTO 18013KT 10SM CLR 29/25 A2988 RMK A01
KBBF 100555Z AUTO 17012KT 8SM FEW020 29/25 A2988 RMK A01
KBBF 100535Z AUTO 16012KT 7SM FEW015 FEW022 29/25 A2988 RMK A01
KBBF 100515Z AUTO 16013KT 6SM HZ FEW015 FEW023 FEW047 29/25 A2988 RMK A01
KBBF 100455Z AUTO 16013KT 7SM CLR 29/25 A2988 RMK A01
KBBF 100435Z AUTO 16012KT 9SM CLR 29/25 A2988 RMK A01
KBBF 100415Z AUTO 16012KT 8SM CLR 29/25 A2988 RMK A01
KBBF 100355Z AUTO 16013KT 8SM FEW016 FEW034 29/25 A2987 RMK A01
KBBF 100335Z AUTO 16014KT 6SM HZ SCT016 SCT032 SCT041 29/25 A2986 RMK A01
KBBF 100315Z AUTO 16011KT 6SM HZ CLR 29/25 A2986 RMK A01
KBBF 100255Z AUTO 16012KT 6SM HZ CLR 29/25 A2985 RMK A01
KBBF 100235Z AUTO 16013KT 7SM CLR 29/25 A2984 RMK A01
KBBF 100215Z AUTO 16014KT 6SM HZ CLR 29/25 A2984 RMK A01
KBBF 100155Z AUTO 16012KT 7SM CLR 29/25 A2984 RMK A01
KBBF 100135Z AUTO 16013KT 6SM HZ CLR 29/25 A2983 RMK A01
KBBF 100115Z AUTO 16013KT 6SM HZ CLR 29/25 A2982 RMK A01
KBBF 100055Z AUTO 16014KT 6SM HZ CLR 29/25 A2981 RMK A01
KBBF 100035Z AUTO 16016KT 6SM HZ FEW020 SCT026 SCT037 29/25 A2980 RMK A01
KBBF 100015Z AUTO 15013KT 6SM HZ SCT020 SCT026 BKN050 29/25 A2980 RMK A01
KBBF 092355Z AUTO 16015KT 6SM HZ FEW021 SCT026 BKN041 29/25 A2980 RMK A01
KBBF 092335Z AUTO 15013KT 6SM HZ FEW022 FEW047 29/25 A2980 RMK A01
KBBF 092315Z AUTO 16013KT 6SM HZ CLR 29/24 A2979 RMK A01
KBBF 092255Z AUTO 16014KT 6SM HZ CLR 29/24 A2979 RMK A01
KBBF 092235Z AUTO 16013KT 6SM HZ CLR 29/24 A2979 RMK A01
KBBF 092215Z AUTO 17013KT 6SM HZ FEW018 29/24 A2978 RMK A01
KBBF 092155Z AUTO 17012KT 6SM HZ FEW019 29/25 A2977 RMK A01
KBBF 092135Z AUTO 17014KT 6SM HZ SCT018 SCT025 29/24 A2977 RMK A01
KBBF 092115Z AUTO 16012KT 6SM HZ SCT017 SCT025 29/25 A2978 RMK A01
KBBF 092055Z AUTO 18012KT 7SM FEW018 FEW023 FEW033 29/24 A2978 RMK A01
KBBF 092035Z AUTO 17014KT 7SM SCT018 SCT023 SCT033 29/24 A2978 RMK A01
KBBF 092015Z AUTO 18014KT 7SM FEW037 29/24 A2978 RMK A01
KBBF 091955Z AUTO 18015KT 7SM FEW030 FEW037 29/24 A2978 RMK A01
KBBF 091935Z AUTO 18012KT 8SM FEW018 FEW028 FEW040 29/24 A2978 RMK A01
KBBF 091915Z AUTO 18015KT 8SM SCT019 SCT028 BKN040 29/24 A2978 RMK A01
KBBF 091855Z AUTO 19013KT 7SM BKN021 BKN031 29/24 A2979 RMK A01
KBBF 091835Z AUTO 19013KT 8SM SCT023 SCT028 29/24 A2980 RMK A01
KBBF 091815Z AUTO 19014KT 9SM FEW021 FEW028 29/24 A2981 RMK A01
KBBF 091755Z AUTO 18014KT 9SM FEW021 SCT027 29/24 A2981 RMK A01
KBBF 091735Z AUTO 19014KT 10SM FEW022 SCT028 29/24 A2981 RMK A01
KBBF 091715Z AUTO 18015KT 10SM SCT024 SCT029 29/24 A2982 RMK A01
KBBF 091655Z AUTO 18014KT 9SM FEW021 SCT027 29/24 A2982 RMK A01
KBBF 091635Z AUTO 20015KT 10SM CLR 29/24 A2982 RMK A01
KBBF 091615Z AUTO 19017KT 10SM CLR 29/23 A2981 RMK A01
KBBF 091555Z AUTO 19016KT 10SM CLR 29/24 A2981 RMK A01
KBBF 091535Z AUTO 19016KT 10SM CLR 29/24 A2982 RMK A01
KBBF 091515Z AUTO 18018KT 10SM FEW020 29/23 A2981 RMK A01
KBBF 091455Z AUTO 19016KT 10SM CLR 29/24 A2981 RMK A01
KBBF 091435Z AUTO 19016KT 10SM CLR 29/23 A2981 RMK A01
KBBF 091410Z AUTO 19015KT 10SM CLR 28/23 A2980 RMK A01
KBBF 091355Z AUTO 19015KT 10SM FEW020 28/23 A2980 RMK A01
KBBF 091335Z AUTO 19017KT 10SM SCT020 28/23 A2979 RMK A01
KBBF 091315Z AUTO 19014KT 10SM CLR 28/23 A2979 RMK A01
KBBF 091255Z AUTO 19015KT 10SM CLR 28/23 A2978 RMK A01
KBBF 091235Z AUTO 19016KT 10SM CLR 28/23 A2977 RMK A01
KBBF 091215Z AUTO 19015KT 10SM CLR 28/23 A2977 RMK A01
KBBF 091155Z AUTO 19014KT 10SM CLR 28/23 A2976 RMK A01
KBBF 091135Z AUTO 19015KT 10SM FEW020 28/23 A2976 RMK A01
KBBF 091115Z AUTO 20015KT 10SM SCT019 28/24 A2975 RMK A01
KBBF 091055Z AUTO 20014KT 10SM FEW018 28/24 A2975 RMK A01
KBBF 091035Z AUTO 21014KT 10SM CLR 28/23 A2974 RMK A01
KBBF 091015Z AUTO 21016KT 10SM FEW018 FEW024 FEW031 28/24 A2974 RMK A01
KBBF 090955Z AUTO 21015KT 10SM SCT020 SCT025 28/23 A2974 RMK A01
KBBF 090935Z AUTO 21015KT 10SM SCT020 28/24 A2973 RMK A01
KBBF 090915Z AUTO 20016KT 10SM FEW020 SCT025 28/24 A2973 RMK A01
KBBF 090855Z AUTO 21015KT 10SM BKN022 28/24 A2973 RMK A01
KBBF 090835Z AUTO 21017KT 10SM FEW019 28/24 A2973 RMK A01
KBBF 090815Z AUTO 21017KT 10SM FEW018 28/24 A2973 RMK A01
KBBF 090755Z AUTO 21017KT 10SM FEW017 FEW025 28/24 A2973 RMK A01
KBBF 090735Z AUTO 22015KT 10SM FEW017 SCT025 28/24 A2974 RMK A01
KBBF 090715Z AUTO 21016KT 10SM SCT018 SCT024 28/24 A2974 RMK A01
KBBF 090655Z AUTO 21018KT 10SM BKN018 BKN023 28/24 A2973 RMK A01
KBBF 090635Z AUTO 22017KT 10SM SCT016 28/24 A2973 RMK A01
KBBF 090615Z AUTO 21017KT 10SM FEW016 28/24 A2972 RMK A01
KBBF 090555Z AUTO 20019KT 10SM CLR 28/24 A2972 RMK A01
KBBF 090535Z AUTO 20020KT 10SM CLR 28/24 A2971 RMK A01
KBBF 090515Z AUTO 20019KT 10SM CLR 28/24 A2972 RMK A01
KBBF 090455Z AUTO 20016KT 10SM CLR 28/24 A2972 RMK A01
KBBF 090435Z AUTO 17.80000018KT 10SM CLR 28/24 A2972 RMK A01
KBBF 090415Z AUTO 19016KT 10SM CLR 28/24 A2972 RMK A01
KBBF 090355Z AUTO 19016KT 10SM CLR 28/24 A2972 RMK A01
KBBF 090335Z AUTO 18015KT 10SM CLR 28/24 A2972 RMK A01
KBBF 090315Z AUTO 19014KT 10SM CLR 28/24 A2972 RMK A01
KBBF 090255Z AUTO 19013KT 10SM CLR 28/24 A2972 RMK A01
KBBF 090235Z AUTO 18013KT 10SM CLR 28/24 A2971 RMK A01
KBBF 090215Z AUTO 19012KT 10SM FEW016 28/24 A2972 RMK A01
KBBF 090155Z AUTO 18012KT 10SM FEW016 28/24 A2971 RMK A01
KBBF 090135Z AUTO 19012KT 10SM CLR 28/24 A2971 RMK A01
KBBF 090115Z AUTO 20010KT 10SM CLR 28/24 A2971 RMK A01
KBBF 090055Z AUTO 20009KT 10SM CLR 28/24 A2971 RMK A01
KBBF 090035Z AUTO 21008KT 10SM CLR 28/24 A2971 RMK A01
KBBF 090015Z AUTO 22009KT 10SM CLR 28/24 A2971 RMK A01
KBBF 082355Z AUTO 23008KT 10SM CLR 28/23 A2970 RMK A01